<?xml version="1.0" encoding="UTF-8" standalone="no" ?>
<gpx xmlns="http://www.topografix.com/GPX/1/1" xmlns:xsi="http://www.w3.org/2001/XMLSchema-instance" xsi:schemaLocation="http://www.topografix.com/GPX/1/1 http://www.topografix.com/GPX/1/1/gpx.xsd" version="1.1" creator="VisuGPX - https://www.visugpx.com">
  <metadata>
    <name>83-dim-Ramatuelle</name>
    <desc><![CDATA[83-dim-Ramatuelle : cap Camarat]]></desc>
  </metadata>
  <trk>
    <name><![CDATA[2014-05-04-02]]></name>
    <trkseg>
      <trkpt lat="43.20112" lon="6.67402">
        <ele>102.4</ele>
        <time>2014-05-04T07:30:20Z</time>
      </trkpt>
      <trkpt lat="43.20096" lon="6.67392">
        <ele>101</ele>
        <time>2014-05-04T07:37:34Z</time>
      </trkpt>
      <trkpt lat="43.20114" lon="6.67389">
        <ele>102.2</ele>
        <time>2014-05-04T07:38:03Z</time>
      </trkpt>
      <trkpt lat="43.20128" lon="6.67403">
        <ele>100.7</ele>
        <time>2014-05-04T07:38:29Z</time>
      </trkpt>
      <trkpt lat="43.20131" lon="6.67427">
        <ele>99.3</ele>
        <time>2014-05-04T07:38:49Z</time>
      </trkpt>
      <trkpt lat="43.20132" lon="6.67451">
        <ele>96.9</ele>
        <time>2014-05-04T07:39:06Z</time>
      </trkpt>
      <trkpt lat="43.20131" lon="6.67474">
        <ele>95</ele>
        <time>2014-05-04T07:39:30Z</time>
      </trkpt>
      <trkpt lat="43.20138" lon="6.67497">
        <ele>93.7</ele>
        <time>2014-05-04T07:39:55Z</time>
      </trkpt>
      <trkpt lat="43.20143" lon="6.6752">
        <ele>92</ele>
        <time>2014-05-04T07:40:19Z</time>
      </trkpt>
      <trkpt lat="43.2014" lon="6.67543">
        <ele>89.4</ele>
        <time>2014-05-04T07:40:38Z</time>
      </trkpt>
      <trkpt lat="43.20138" lon="6.67566">
        <ele>88.1</ele>
        <time>2014-05-04T07:40:53Z</time>
      </trkpt>
      <trkpt lat="43.20134" lon="6.6759">
        <ele>84.6</ele>
        <time>2014-05-04T07:41:15Z</time>
      </trkpt>
      <trkpt lat="43.2012" lon="6.67604">
        <ele>83.2</ele>
        <time>2014-05-04T07:41:33Z</time>
      </trkpt>
      <trkpt lat="43.20109" lon="6.67624">
        <ele>79.9</ele>
        <time>2014-05-04T07:41:55Z</time>
      </trkpt>
      <trkpt lat="43.201" lon="6.67645">
        <ele>77.5</ele>
        <time>2014-05-04T07:42:15Z</time>
      </trkpt>
      <trkpt lat="43.201" lon="6.67669">
        <ele>76.1</ele>
        <time>2014-05-04T07:42:33Z</time>
      </trkpt>
      <trkpt lat="43.20091" lon="6.67688">
        <ele>73.3</ele>
        <time>2014-05-04T07:42:52Z</time>
      </trkpt>
      <trkpt lat="43.20083" lon="6.67709">
        <ele>70.3</ele>
        <time>2014-05-04T07:43:10Z</time>
      </trkpt>
      <trkpt lat="43.20078" lon="6.67732">
        <ele>67.5</ele>
        <time>2014-05-04T07:43:58Z</time>
      </trkpt>
      <trkpt lat="43.20066" lon="6.67749">
        <ele>61.5</ele>
        <time>2014-05-04T07:44:36Z</time>
      </trkpt>
      <trkpt lat="43.20056" lon="6.67769">
        <ele>58.1</ele>
        <time>2014-05-04T07:44:55Z</time>
      </trkpt>
      <trkpt lat="43.20049" lon="6.67791">
        <ele>54.5</ele>
        <time>2014-05-04T07:46:28Z</time>
      </trkpt>
      <trkpt lat="43.20043" lon="6.67814">
        <ele>51.2</ele>
        <time>2014-05-04T07:47:28Z</time>
      </trkpt>
      <trkpt lat="43.2004" lon="6.67837">
        <ele>47.3</ele>
        <time>2014-05-04T07:48:06Z</time>
      </trkpt>
      <trkpt lat="43.20036" lon="6.6786">
        <ele>43.3</ele>
        <time>2014-05-04T07:48:24Z</time>
      </trkpt>
      <trkpt lat="43.20039" lon="6.67884">
        <ele>39</ele>
        <time>2014-05-04T07:49:16Z</time>
      </trkpt>
      <trkpt lat="43.2003" lon="6.67906">
        <ele>34.2</ele>
        <time>2014-05-04T07:50:08Z</time>
      </trkpt>
      <trkpt lat="43.20023" lon="6.67928">
        <ele>30.4</ele>
        <time>2014-05-04T07:50:30Z</time>
      </trkpt>
      <trkpt lat="43.20023" lon="6.67952">
        <ele>29.1</ele>
        <time>2014-05-04T07:50:50Z</time>
      </trkpt>
      <trkpt lat="43.20034" lon="6.67971">
        <ele>25</ele>
        <time>2014-05-04T07:52:00Z</time>
      </trkpt>
      <trkpt lat="43.20026" lon="6.67993">
        <ele>26.9</ele>
        <time>2014-05-04T07:54:11Z</time>
      </trkpt>
      <trkpt lat="43.20021" lon="6.68016">
        <ele>21.4</ele>
        <time>2014-05-04T07:55:34Z</time>
      </trkpt>
      <trkpt lat="43.20013" lon="6.68038">
        <ele>15.9</ele>
        <time>2014-05-04T07:56:27Z</time>
      </trkpt>
      <trkpt lat="43.19997" lon="6.68048">
        <ele>11.9</ele>
        <time>2014-05-04T07:57:06Z</time>
      </trkpt>
      <trkpt lat="43.19979" lon="6.68052">
        <ele>7.2</ele>
        <time>2014-05-04T07:57:32Z</time>
      </trkpt>
      <trkpt lat="43.19966" lon="6.68037">
        <ele>5.1</ele>
        <time>2014-05-04T07:58:08Z</time>
      </trkpt>
      <trkpt lat="43.19953" lon="6.68019">
        <ele>4.3</ele>
        <time>2014-05-04T07:58:48Z</time>
      </trkpt>
      <trkpt lat="43.19948" lon="6.67996">
        <ele>3.5</ele>
        <time>2014-05-04T07:59:07Z</time>
      </trkpt>
      <trkpt lat="43.1994" lon="6.67975">
        <ele>2.6</ele>
        <time>2014-05-04T07:59:23Z</time>
      </trkpt>
      <trkpt lat="43.19941" lon="6.67951">
        <ele>6.1</ele>
        <time>2014-05-04T07:59:42Z</time>
      </trkpt>
      <trkpt lat="43.19938" lon="6.67927">
        <ele>6.6</ele>
        <time>2014-05-04T07:59:59Z</time>
      </trkpt>
      <trkpt lat="43.19929" lon="6.67906">
        <ele>5.9</ele>
        <time>2014-05-04T08:00:19Z</time>
      </trkpt>
      <trkpt lat="43.19919" lon="6.67885">
        <ele>6.2</ele>
        <time>2014-05-04T08:00:35Z</time>
      </trkpt>
      <trkpt lat="43.19914" lon="6.67863">
        <ele>9.1</ele>
        <time>2014-05-04T08:00:59Z</time>
      </trkpt>
      <trkpt lat="43.19899" lon="6.67848">
        <ele>11.6</ele>
        <time>2014-05-04T08:01:23Z</time>
      </trkpt>
      <trkpt lat="43.19884" lon="6.67835">
        <ele>4.4</ele>
        <time>2014-05-04T08:02:21Z</time>
      </trkpt>
      <trkpt lat="43.19873" lon="6.67818">
        <ele>0.6</ele>
        <time>2014-05-04T08:02:54Z</time>
      </trkpt>
      <trkpt lat="43.19855" lon="6.67818">
        <ele>-3.9</ele>
        <time>2014-05-04T08:03:38Z</time>
      </trkpt>
      <trkpt lat="43.1986" lon="6.67796">
        <ele>-2.2</ele>
        <time>2014-05-04T08:04:11Z</time>
      </trkpt>
      <trkpt lat="43.19854" lon="6.67774">
        <ele>1</ele>
        <time>2014-05-04T08:04:40Z</time>
      </trkpt>
      <trkpt lat="43.19839" lon="6.67761">
        <ele>-2</ele>
        <time>2014-05-04T08:05:12Z</time>
      </trkpt>
      <trkpt lat="43.19835" lon="6.67737">
        <ele>-4.5</ele>
        <time>2014-05-04T08:05:33Z</time>
      </trkpt>
      <trkpt lat="43.19821" lon="6.67723">
        <ele>-3.1</ele>
        <time>2014-05-04T08:05:53Z</time>
      </trkpt>
      <trkpt lat="43.19812" lon="6.67702">
        <ele>-4.3</ele>
        <time>2014-05-04T08:06:16Z</time>
      </trkpt>
      <trkpt lat="43.19797" lon="6.67689">
        <ele>-4.8</ele>
        <time>2014-05-04T08:06:50Z</time>
      </trkpt>
      <trkpt lat="43.19779" lon="6.67687">
        <ele>-4.1</ele>
        <time>2014-05-04T08:07:19Z</time>
      </trkpt>
      <trkpt lat="43.19762" lon="6.67695">
        <ele>-1.6</ele>
        <time>2014-05-04T08:07:42Z</time>
      </trkpt>
      <trkpt lat="43.19744" lon="6.67694">
        <ele>1.6</ele>
        <time>2014-05-04T08:08:08Z</time>
      </trkpt>
      <trkpt lat="43.19727" lon="6.67689">
        <ele>1.8</ele>
        <time>2014-05-04T08:08:27Z</time>
      </trkpt>
      <trkpt lat="43.1971" lon="6.6769">
        <ele>8.4</ele>
        <time>2014-05-04T08:09:13Z</time>
      </trkpt>
      <trkpt lat="43.19698" lon="6.67673">
        <ele>8.8</ele>
        <time>2014-05-04T08:09:35Z</time>
      </trkpt>
      <trkpt lat="43.1969" lon="6.6765">
        <ele>12.6</ele>
        <time>2014-05-04T08:10:10Z</time>
      </trkpt>
      <trkpt lat="43.19678" lon="6.67633">
        <ele>15.7</ele>
        <time>2014-05-04T08:10:33Z</time>
      </trkpt>
      <trkpt lat="43.19662" lon="6.67624">
        <ele>17.6</ele>
        <time>2014-05-04T08:10:51Z</time>
      </trkpt>
      <trkpt lat="43.19648" lon="6.67609">
        <ele>14.6</ele>
        <time>2014-05-04T08:11:37Z</time>
      </trkpt>
      <trkpt lat="43.19642" lon="6.67587">
        <ele>13.9</ele>
        <time>2014-05-04T08:11:52Z</time>
      </trkpt>
      <trkpt lat="43.19626" lon="6.67578">
        <ele>13.3</ele>
        <time>2014-05-04T08:12:09Z</time>
      </trkpt>
      <trkpt lat="43.19609" lon="6.67572">
        <ele>9.7</ele>
        <time>2014-05-04T08:12:56Z</time>
      </trkpt>
      <trkpt lat="43.19608" lon="6.67547">
        <ele>7.8</ele>
        <time>2014-05-04T08:13:27Z</time>
      </trkpt>
      <trkpt lat="43.19618" lon="6.67527">
        <ele>6.7</ele>
        <time>2014-05-04T08:13:56Z</time>
      </trkpt>
      <trkpt lat="43.19625" lon="6.67505">
        <ele>4</ele>
        <time>2014-05-04T08:14:18Z</time>
      </trkpt>
      <trkpt lat="43.19634" lon="6.67484">
        <ele>2.7</ele>
        <time>2014-05-04T08:14:42Z</time>
      </trkpt>
      <trkpt lat="43.19651" lon="6.67476">
        <ele>3.3</ele>
        <time>2014-05-04T08:15:02Z</time>
      </trkpt>
      <trkpt lat="43.19666" lon="6.67465">
        <ele>1.9</ele>
        <time>2014-05-04T08:15:22Z</time>
      </trkpt>
      <trkpt lat="43.19679" lon="6.67449">
        <ele>0.8</ele>
        <time>2014-05-04T08:15:52Z</time>
      </trkpt>
      <trkpt lat="43.19692" lon="6.67432">
        <ele>-2.5</ele>
        <time>2014-05-04T08:16:27Z</time>
      </trkpt>
      <trkpt lat="43.19697" lon="6.67409">
        <ele>-3.1</ele>
        <time>2014-05-04T08:16:49Z</time>
      </trkpt>
      <trkpt lat="43.19699" lon="6.67385">
        <ele>-0.8</ele>
        <time>2014-05-04T08:17:23Z</time>
      </trkpt>
      <trkpt lat="43.19705" lon="6.67362">
        <ele>-0.6</ele>
        <time>2014-05-04T08:17:51Z</time>
      </trkpt>
      <trkpt lat="43.19708" lon="6.67338">
        <ele>-0.4</ele>
        <time>2014-05-04T08:18:12Z</time>
      </trkpt>
      <trkpt lat="43.19717" lon="6.67317">
        <ele>-1.6</ele>
        <time>2014-05-04T08:18:43Z</time>
      </trkpt>
      <trkpt lat="43.19711" lon="6.67294">
        <ele>-3.1</ele>
        <time>2014-05-04T08:19:05Z</time>
      </trkpt>
      <trkpt lat="43.19702" lon="6.67274">
        <ele>-3.9</ele>
        <time>2014-05-04T08:21:01Z</time>
      </trkpt>
      <trkpt lat="43.19704" lon="6.67249">
        <ele>-0.1</ele>
        <time>2014-05-04T08:23:42Z</time>
      </trkpt>
      <trkpt lat="43.19699" lon="6.67226">
        <ele>2.3</ele>
        <time>2014-05-04T08:24:09Z</time>
      </trkpt>
      <trkpt lat="43.19691" lon="6.67205">
        <ele>-0.3</ele>
        <time>2014-05-04T08:24:26Z</time>
      </trkpt>
      <trkpt lat="43.19689" lon="6.67181">
        <ele>2.5</ele>
        <time>2014-05-04T08:24:53Z</time>
      </trkpt>
      <trkpt lat="43.19694" lon="6.67158">
        <ele>6.9</ele>
        <time>2014-05-04T08:25:20Z</time>
      </trkpt>
      <trkpt lat="43.19686" lon="6.67137">
        <ele>7</ele>
        <time>2014-05-04T08:25:37Z</time>
      </trkpt>
      <trkpt lat="43.19672" lon="6.67121">
        <ele>5.8</ele>
        <time>2014-05-04T08:25:56Z</time>
      </trkpt>
      <trkpt lat="43.19674" lon="6.67097">
        <ele>5.7</ele>
        <time>2014-05-04T08:26:20Z</time>
      </trkpt>
      <trkpt lat="43.19682" lon="6.67076">
        <ele>6.4</ele>
        <time>2014-05-04T08:26:38Z</time>
      </trkpt>
      <trkpt lat="43.19687" lon="6.67052">
        <ele>6.3</ele>
        <time>2014-05-04T08:27:02Z</time>
      </trkpt>
      <trkpt lat="43.19679" lon="6.6703">
        <ele>3.7</ele>
        <time>2014-05-04T08:27:21Z</time>
      </trkpt>
      <trkpt lat="43.19669" lon="6.6701">
        <ele>0.2</ele>
        <time>2014-05-04T08:27:46Z</time>
      </trkpt>
      <trkpt lat="43.19652" lon="6.67007">
        <ele>-2.6</ele>
        <time>2014-05-04T08:28:08Z</time>
      </trkpt>
      <trkpt lat="43.19648" lon="6.66984">
        <ele>0.4</ele>
        <time>2014-05-04T08:28:29Z</time>
      </trkpt>
      <trkpt lat="43.19635" lon="6.66968">
        <ele>1.2</ele>
        <time>2014-05-04T08:28:53Z</time>
      </trkpt>
      <trkpt lat="43.19617" lon="6.66967">
        <ele>0.9</ele>
        <time>2014-05-04T08:29:12Z</time>
      </trkpt>
      <trkpt lat="43.19601" lon="6.66958">
        <ele>3</ele>
        <time>2014-05-04T08:29:58Z</time>
      </trkpt>
      <trkpt lat="43.19585" lon="6.66948">
        <ele>-0.8</ele>
        <time>2014-05-04T08:30:43Z</time>
      </trkpt>
      <trkpt lat="43.19601" lon="6.6696">
        <ele>2</ele>
        <time>2014-05-04T08:31:38Z</time>
      </trkpt>
      <trkpt lat="43.19586" lon="6.66948">
        <ele>-0.7</ele>
        <time>2014-05-04T08:36:43Z</time>
      </trkpt>
      <trkpt lat="43.19578" lon="6.66926">
        <ele>-1.5</ele>
        <time>2014-05-04T08:37:02Z</time>
      </trkpt>
      <trkpt lat="43.19584" lon="6.66903">
        <ele>0.6</ele>
        <time>2014-05-04T08:37:25Z</time>
      </trkpt>
      <trkpt lat="43.19585" lon="6.6688">
        <ele>0.1</ele>
        <time>2014-05-04T08:37:43Z</time>
      </trkpt>
      <trkpt lat="43.19586" lon="6.66855">
        <ele>0.7</ele>
        <time>2014-05-04T08:38:07Z</time>
      </trkpt>
      <trkpt lat="43.19597" lon="6.66835">
        <ele>2.1</ele>
        <time>2014-05-04T08:38:32Z</time>
      </trkpt>
      <trkpt lat="43.19613" lon="6.66825">
        <ele>4.3</ele>
        <time>2014-05-04T08:38:56Z</time>
      </trkpt>
      <trkpt lat="43.19608" lon="6.66802">
        <ele>-0.4</ele>
        <time>2014-05-04T08:39:26Z</time>
      </trkpt>
      <trkpt lat="43.19604" lon="6.66778">
        <ele>1.2</ele>
        <time>2014-05-04T08:39:56Z</time>
      </trkpt>
      <trkpt lat="43.19595" lon="6.66758">
        <ele>5.4</ele>
        <time>2014-05-04T08:40:22Z</time>
      </trkpt>
      <trkpt lat="43.19589" lon="6.66736">
        <ele>7.2</ele>
        <time>2014-05-04T08:40:50Z</time>
      </trkpt>
      <trkpt lat="43.19582" lon="6.66715">
        <ele>4.2</ele>
        <time>2014-05-04T08:41:28Z</time>
      </trkpt>
      <trkpt lat="43.19577" lon="6.66691">
        <ele>3.3</ele>
        <time>2014-05-04T08:41:54Z</time>
      </trkpt>
      <trkpt lat="43.1956" lon="6.66685">
        <ele>1.8</ele>
        <time>2014-05-04T08:42:20Z</time>
      </trkpt>
      <trkpt lat="43.19556" lon="6.66661">
        <ele>7.4</ele>
        <time>2014-05-04T08:42:57Z</time>
      </trkpt>
      <trkpt lat="43.19553" lon="6.66637">
        <ele>3</ele>
        <time>2014-05-04T08:43:25Z</time>
      </trkpt>
      <trkpt lat="43.19547" lon="6.66614">
        <ele>5.8</ele>
        <time>2014-05-04T08:43:50Z</time>
      </trkpt>
      <trkpt lat="43.19537" lon="6.66594">
        <ele>3.9</ele>
        <time>2014-05-04T08:44:21Z</time>
      </trkpt>
      <trkpt lat="43.19537" lon="6.6657">
        <ele>1.3</ele>
        <time>2014-05-04T08:44:50Z</time>
      </trkpt>
      <trkpt lat="43.19527" lon="6.66549">
        <ele>-4.3</ele>
        <time>2014-05-04T08:45:49Z</time>
      </trkpt>
      <trkpt lat="43.19511" lon="6.66539">
        <ele>-2.4</ele>
        <time>2014-05-04T08:47:28Z</time>
      </trkpt>
      <trkpt lat="43.19519" lon="6.66518">
        <ele>-1.9</ele>
        <time>2014-05-04T08:48:22Z</time>
      </trkpt>
      <trkpt lat="43.19534" lon="6.66505">
        <ele>1.1</ele>
        <time>2014-05-04T08:50:04Z</time>
      </trkpt>
      <trkpt lat="43.19544" lon="6.66485">
        <ele>-3</ele>
        <time>2014-05-04T08:52:14Z</time>
      </trkpt>
      <trkpt lat="43.19547" lon="6.66462">
        <ele>-6.9</ele>
        <time>2014-05-04T08:52:40Z</time>
      </trkpt>
      <trkpt lat="43.19529" lon="6.66459">
        <ele>-12.1</ele>
        <time>2014-05-04T08:53:14Z</time>
      </trkpt>
      <trkpt lat="43.19514" lon="6.66447">
        <ele>-11.6</ele>
        <time>2014-05-04T08:53:48Z</time>
      </trkpt>
      <trkpt lat="43.19509" lon="6.66423">
        <ele>-13.3</ele>
        <time>2014-05-04T08:54:34Z</time>
      </trkpt>
      <trkpt lat="43.19497" lon="6.66407">
        <ele>-13.9</ele>
        <time>2014-05-04T08:56:54Z</time>
      </trkpt>
      <trkpt lat="43.19507" lon="6.66387">
        <ele>-2.3</ele>
        <time>2014-05-04T08:58:55Z</time>
      </trkpt>
      <trkpt lat="43.19517" lon="6.66367">
        <ele>0.6</ele>
        <time>2014-05-04T08:59:57Z</time>
      </trkpt>
      <trkpt lat="43.1953" lon="6.66351">
        <ele>1.7</ele>
        <time>2014-05-04T09:00:13Z</time>
      </trkpt>
      <trkpt lat="43.19542" lon="6.66334">
        <ele>2.2</ele>
        <time>2014-05-04T09:00:26Z</time>
      </trkpt>
      <trkpt lat="43.19559" lon="6.66329">
        <ele>4.8</ele>
        <time>2014-05-04T09:00:47Z</time>
      </trkpt>
      <trkpt lat="43.19568" lon="6.66308">
        <ele>6</ele>
        <time>2014-05-04T09:01:02Z</time>
      </trkpt>
      <trkpt lat="43.19569" lon="6.66284">
        <ele>6</ele>
        <time>2014-05-04T09:01:20Z</time>
      </trkpt>
      <trkpt lat="43.19568" lon="6.66261">
        <ele>3.7</ele>
        <time>2014-05-04T09:01:37Z</time>
      </trkpt>
      <trkpt lat="43.19569" lon="6.66237">
        <ele>1.7</ele>
        <time>2014-05-04T09:01:52Z</time>
      </trkpt>
      <trkpt lat="43.19576" lon="6.66215">
        <ele>-0.2</ele>
        <time>2014-05-04T09:02:11Z</time>
      </trkpt>
      <trkpt lat="43.19584" lon="6.66193">
        <ele>-2.8</ele>
        <time>2014-05-04T09:02:33Z</time>
      </trkpt>
      <trkpt lat="43.19588" lon="6.66169">
        <ele>-6.5</ele>
        <time>2014-05-04T09:03:13Z</time>
      </trkpt>
      <trkpt lat="43.19605" lon="6.66161">
        <ele>-5.7</ele>
        <time>2014-05-04T09:03:55Z</time>
      </trkpt>
      <trkpt lat="43.19622" lon="6.66166">
        <ele>0.4</ele>
        <time>2014-05-04T09:04:41Z</time>
      </trkpt>
      <trkpt lat="43.19639" lon="6.66171">
        <ele>6.6</ele>
        <time>2014-05-04T09:05:25Z</time>
      </trkpt>
      <trkpt lat="43.19651" lon="6.66189">
        <ele>13.8</ele>
        <time>2014-05-04T09:06:49Z</time>
      </trkpt>
      <trkpt lat="43.19653" lon="6.66212">
        <ele>14.7</ele>
        <time>2014-05-04T09:07:48Z</time>
      </trkpt>
      <trkpt lat="43.19646" lon="6.66191">
        <ele>13.8</ele>
        <time>2014-05-04T09:08:58Z</time>
      </trkpt>
      <trkpt lat="43.19649" lon="6.66168">
        <ele>12.3</ele>
        <time>2014-05-04T09:09:11Z</time>
      </trkpt>
      <trkpt lat="43.19654" lon="6.66145">
        <ele>13</ele>
        <time>2014-05-04T09:09:24Z</time>
      </trkpt>
      <trkpt lat="43.19664" lon="6.66125">
        <ele>12.6</ele>
        <time>2014-05-04T09:12:31Z</time>
      </trkpt>
      <trkpt lat="43.19673" lon="6.66104">
        <ele>12.5</ele>
        <time>2014-05-04T09:12:53Z</time>
      </trkpt>
      <trkpt lat="43.19685" lon="6.66086">
        <ele>13.5</ele>
        <time>2014-05-04T09:13:27Z</time>
      </trkpt>
      <trkpt lat="43.19694" lon="6.66065">
        <ele>14.2</ele>
        <time>2014-05-04T09:13:43Z</time>
      </trkpt>
      <trkpt lat="43.19699" lon="6.66041">
        <ele>15.1</ele>
        <time>2014-05-04T09:13:59Z</time>
      </trkpt>
      <trkpt lat="43.19699" lon="6.66017">
        <ele>17.3</ele>
        <time>2014-05-04T09:14:18Z</time>
      </trkpt>
      <trkpt lat="43.197" lon="6.65993">
        <ele>16.8</ele>
        <time>2014-05-04T09:14:36Z</time>
      </trkpt>
      <trkpt lat="43.19698" lon="6.6597">
        <ele>17</ele>
        <time>2014-05-04T09:14:53Z</time>
      </trkpt>
      <trkpt lat="43.19691" lon="6.65949">
        <ele>16.5</ele>
        <time>2014-05-04T09:15:10Z</time>
      </trkpt>
      <trkpt lat="43.19674" lon="6.6594">
        <ele>12.3</ele>
        <time>2014-05-04T09:16:07Z</time>
      </trkpt>
      <trkpt lat="43.19661" lon="6.65923">
        <ele>11.1</ele>
        <time>2014-05-04T09:16:28Z</time>
      </trkpt>
      <trkpt lat="43.19648" lon="6.65908">
        <ele>7.8</ele>
        <time>2014-05-04T09:16:57Z</time>
      </trkpt>
      <trkpt lat="43.19637" lon="6.65888">
        <ele>7</ele>
        <time>2014-05-04T09:17:18Z</time>
      </trkpt>
      <trkpt lat="43.19625" lon="6.6587">
        <ele>5</ele>
        <time>2014-05-04T09:17:42Z</time>
      </trkpt>
      <trkpt lat="43.19614" lon="6.65851">
        <ele>3.3</ele>
        <time>2014-05-04T09:18:04Z</time>
      </trkpt>
      <trkpt lat="43.19597" lon="6.65847">
        <ele>-1.4</ele>
        <time>2014-05-04T09:18:43Z</time>
      </trkpt>
      <trkpt lat="43.19579" lon="6.65847">
        <ele>-7.6</ele>
        <time>2014-05-04T09:19:30Z</time>
      </trkpt>
      <trkpt lat="43.1957" lon="6.65827">
        <ele>-10.3</ele>
        <time>2014-05-04T09:21:09Z</time>
      </trkpt>
      <trkpt lat="43.19576" lon="6.65804">
        <ele>-4.8</ele>
        <time>2014-05-04T09:21:40Z</time>
      </trkpt>
      <trkpt lat="43.19567" lon="6.65784">
        <ele>0.2</ele>
        <time>2014-05-04T09:22:12Z</time>
      </trkpt>
      <trkpt lat="43.19565" lon="6.6576">
        <ele>3.6</ele>
        <time>2014-05-04T09:22:41Z</time>
      </trkpt>
      <trkpt lat="43.19563" lon="6.65736">
        <ele>7.2</ele>
        <time>2014-05-04T09:23:12Z</time>
      </trkpt>
      <trkpt lat="43.19563" lon="6.65711">
        <ele>10.1</ele>
        <time>2014-05-04T09:23:40Z</time>
      </trkpt>
      <trkpt lat="43.19553" lon="6.65692">
        <ele>12.4</ele>
        <time>2014-05-04T09:24:13Z</time>
      </trkpt>
      <trkpt lat="43.19539" lon="6.65679">
        <ele>13.6</ele>
        <time>2014-05-04T09:24:30Z</time>
      </trkpt>
      <trkpt lat="43.19525" lon="6.65664">
        <ele>11.9</ele>
        <time>2014-05-04T09:24:53Z</time>
      </trkpt>
      <trkpt lat="43.19509" lon="6.65651">
        <ele>11</ele>
        <time>2014-05-04T09:25:13Z</time>
      </trkpt>
      <trkpt lat="43.19494" lon="6.6564">
        <ele>6.7</ele>
        <time>2014-05-04T09:25:51Z</time>
      </trkpt>
      <trkpt lat="43.19476" lon="6.65644">
        <ele>1</ele>
        <time>2014-05-04T09:27:00Z</time>
      </trkpt>
      <trkpt lat="43.19469" lon="6.65622">
        <ele>-4.1</ele>
        <time>2014-05-04T09:27:36Z</time>
      </trkpt>
      <trkpt lat="43.19465" lon="6.65598">
        <ele>-5.4</ele>
        <time>2014-05-04T09:28:02Z</time>
      </trkpt>
      <trkpt lat="43.19455" lon="6.65578">
        <ele>-6.2</ele>
        <time>2014-05-04T09:28:30Z</time>
      </trkpt>
      <trkpt lat="43.19442" lon="6.65562">
        <ele>-5.3</ele>
        <time>2014-05-04T09:28:55Z</time>
      </trkpt>
      <trkpt lat="43.19432" lon="6.65543">
        <ele>-6.3</ele>
        <time>2014-05-04T09:29:26Z</time>
      </trkpt>
      <trkpt lat="43.1942" lon="6.65524">
        <ele>-7.5</ele>
        <time>2014-05-04T09:29:50Z</time>
      </trkpt>
      <trkpt lat="43.19406" lon="6.65511">
        <ele>-7.3</ele>
        <time>2014-05-04T09:30:29Z</time>
      </trkpt>
      <trkpt lat="43.19389" lon="6.65504">
        <ele>-7.9</ele>
        <time>2014-05-04T09:30:44Z</time>
      </trkpt>
      <trkpt lat="43.19373" lon="6.65491">
        <ele>-7.2</ele>
        <time>2014-05-04T09:30:59Z</time>
      </trkpt>
      <trkpt lat="43.19363" lon="6.65473">
        <ele>-5.8</ele>
        <time>2014-05-04T09:31:16Z</time>
      </trkpt>
      <trkpt lat="43.19356" lon="6.65451">
        <ele>-5.1</ele>
        <time>2014-05-04T09:31:51Z</time>
      </trkpt>
      <trkpt lat="43.19343" lon="6.65435">
        <ele>-6.5</ele>
        <time>2014-05-04T09:32:20Z</time>
      </trkpt>
      <trkpt lat="43.19337" lon="6.65413">
        <ele>-5.1</ele>
        <time>2014-05-04T09:32:46Z</time>
      </trkpt>
      <trkpt lat="43.19326" lon="6.65393">
        <ele>-5.4</ele>
        <time>2014-05-04T09:33:16Z</time>
      </trkpt>
      <trkpt lat="43.19317" lon="6.65372">
        <ele>-4.3</ele>
        <time>2014-05-04T09:33:49Z</time>
      </trkpt>
      <trkpt lat="43.19307" lon="6.65354">
        <ele>-4.6</ele>
        <time>2014-05-04T09:34:07Z</time>
      </trkpt>
      <trkpt lat="43.19294" lon="6.65337">
        <ele>-4.3</ele>
        <time>2014-05-04T09:34:23Z</time>
      </trkpt>
      <trkpt lat="43.19279" lon="6.65322">
        <ele>-4.7</ele>
        <time>2014-05-04T09:34:40Z</time>
      </trkpt>
      <trkpt lat="43.19272" lon="6.65301">
        <ele>-4.3</ele>
        <time>2014-05-04T09:34:56Z</time>
      </trkpt>
      <trkpt lat="43.19263" lon="6.65281">
        <ele>-4.5</ele>
        <time>2014-05-04T09:35:21Z</time>
      </trkpt>
      <trkpt lat="43.19249" lon="6.65268">
        <ele>-4.9</ele>
        <time>2014-05-04T09:35:40Z</time>
      </trkpt>
      <trkpt lat="43.19238" lon="6.65248">
        <ele>-3.8</ele>
        <time>2014-05-04T09:36:05Z</time>
      </trkpt>
      <trkpt lat="43.19222" lon="6.6524">
        <ele>-3.7</ele>
        <time>2014-05-04T09:37:29Z</time>
      </trkpt>
      <trkpt lat="43.19212" lon="6.65219">
        <ele>-6.1</ele>
        <time>2014-05-04T09:37:55Z</time>
      </trkpt>
      <trkpt lat="43.19195" lon="6.6522">
        <ele>-2.2</ele>
        <time>2014-05-04T09:38:26Z</time>
      </trkpt>
      <trkpt lat="43.19177" lon="6.65225">
        <ele>-3.5</ele>
        <time>2014-05-04T09:38:49Z</time>
      </trkpt>
      <trkpt lat="43.19161" lon="6.65215">
        <ele>1.8</ele>
        <time>2014-05-04T09:39:25Z</time>
      </trkpt>
      <trkpt lat="43.19155" lon="6.65192">
        <ele>5.4</ele>
        <time>2014-05-04T09:39:57Z</time>
      </trkpt>
      <trkpt lat="43.19143" lon="6.65177">
        <ele>5.5</ele>
        <time>2014-05-04T09:40:20Z</time>
      </trkpt>
      <trkpt lat="43.19132" lon="6.65159">
        <ele>3.9</ele>
        <time>2014-05-04T09:40:44Z</time>
      </trkpt>
      <trkpt lat="43.19125" lon="6.65137">
        <ele>1.8</ele>
        <time>2014-05-04T09:41:05Z</time>
      </trkpt>
      <trkpt lat="43.19116" lon="6.65117">
        <ele>-1</ele>
        <time>2014-05-04T09:41:45Z</time>
      </trkpt>
      <trkpt lat="43.191" lon="6.65107">
        <ele>-1.1</ele>
        <time>2014-05-04T09:42:17Z</time>
      </trkpt>
      <trkpt lat="43.19084" lon="6.65097">
        <ele>0.9</ele>
        <time>2014-05-04T09:42:41Z</time>
      </trkpt>
      <trkpt lat="43.19068" lon="6.65088">
        <ele>3.1</ele>
        <time>2014-05-04T09:45:43Z</time>
      </trkpt>
      <trkpt lat="43.19063" lon="6.65065">
        <ele>3.2</ele>
        <time>2014-05-04T09:47:33Z</time>
      </trkpt>
      <trkpt lat="43.1906" lon="6.65041">
        <ele>4</ele>
        <time>2014-05-04T09:48:05Z</time>
      </trkpt>
      <trkpt lat="43.19049" lon="6.65021">
        <ele>4.4</ele>
        <time>2014-05-04T09:48:22Z</time>
      </trkpt>
      <trkpt lat="43.19032" lon="6.65014">
        <ele>5.6</ele>
        <time>2014-05-04T09:48:41Z</time>
      </trkpt>
      <trkpt lat="43.19024" lon="6.64994">
        <ele>5.8</ele>
        <time>2014-05-04T09:49:13Z</time>
      </trkpt>
      <trkpt lat="43.19016" lon="6.64972">
        <ele>5.4</ele>
        <time>2014-05-04T09:49:32Z</time>
      </trkpt>
      <trkpt lat="43.18999" lon="6.64965">
        <ele>5.5</ele>
        <time>2014-05-04T09:49:47Z</time>
      </trkpt>
      <trkpt lat="43.18982" lon="6.64961">
        <ele>5.5</ele>
        <time>2014-05-04T09:50:02Z</time>
      </trkpt>
      <trkpt lat="43.18965" lon="6.64959">
        <ele>3.4</ele>
        <time>2014-05-04T09:50:17Z</time>
      </trkpt>
      <trkpt lat="43.18948" lon="6.64954">
        <ele>2.3</ele>
        <time>2014-05-04T09:50:32Z</time>
      </trkpt>
      <trkpt lat="43.18931" lon="6.64952">
        <ele>4.1</ele>
        <time>2014-05-04T09:50:50Z</time>
      </trkpt>
      <trkpt lat="43.18914" lon="6.64957">
        <ele>4.1</ele>
        <time>2014-05-04T09:51:15Z</time>
      </trkpt>
      <trkpt lat="43.18899" lon="6.64942">
        <ele>3.9</ele>
        <time>2014-05-04T09:51:36Z</time>
      </trkpt>
      <trkpt lat="43.18887" lon="6.64924">
        <ele>3.7</ele>
        <time>2014-05-04T09:51:57Z</time>
      </trkpt>
      <trkpt lat="43.18886" lon="6.649">
        <ele>3.2</ele>
        <time>2014-05-04T09:52:16Z</time>
      </trkpt>
      <trkpt lat="43.18879" lon="6.64878">
        <ele>3</ele>
        <time>2014-05-04T09:52:35Z</time>
      </trkpt>
      <trkpt lat="43.18874" lon="6.64854">
        <ele>4.7</ele>
        <time>2014-05-04T09:52:52Z</time>
      </trkpt>
      <trkpt lat="43.18873" lon="6.64831">
        <ele>5.7</ele>
        <time>2014-05-04T09:53:16Z</time>
      </trkpt>
      <trkpt lat="43.18857" lon="6.64822">
        <ele>5.6</ele>
        <time>2014-05-04T09:53:44Z</time>
      </trkpt>
      <trkpt lat="43.18843" lon="6.64806">
        <ele>3.3</ele>
        <time>2014-05-04T09:54:05Z</time>
      </trkpt>
      <trkpt lat="43.18827" lon="6.64797">
        <ele>6.7</ele>
        <time>2014-05-04T09:54:31Z</time>
      </trkpt>
      <trkpt lat="43.18815" lon="6.6478">
        <ele>5</ele>
        <time>2014-05-04T09:54:54Z</time>
      </trkpt>
      <trkpt lat="43.1881" lon="6.64757">
        <ele>4.5</ele>
        <time>2014-05-04T09:55:11Z</time>
      </trkpt>
      <trkpt lat="43.18804" lon="6.64735">
        <ele>3</ele>
        <time>2014-05-04T09:55:31Z</time>
      </trkpt>
      <trkpt lat="43.18802" lon="6.64711">
        <ele>5.5</ele>
        <time>2014-05-04T09:55:52Z</time>
      </trkpt>
      <trkpt lat="43.18793" lon="6.6469">
        <ele>4.4</ele>
        <time>2014-05-04T09:56:49Z</time>
      </trkpt>
      <trkpt lat="43.1879" lon="6.64667">
        <ele>3.1</ele>
        <time>2014-05-04T09:57:24Z</time>
      </trkpt>
      <trkpt lat="43.18789" lon="6.64642">
        <ele>3.1</ele>
        <time>2014-05-04T09:57:49Z</time>
      </trkpt>
      <trkpt lat="43.18792" lon="6.64619">
        <ele>3.2</ele>
        <time>2014-05-04T09:58:32Z</time>
      </trkpt>
      <trkpt lat="43.18799" lon="6.64597">
        <ele>1.3</ele>
        <time>2014-05-04T09:59:02Z</time>
      </trkpt>
      <trkpt lat="43.18801" lon="6.64574">
        <ele>2.5</ele>
        <time>2014-05-04T09:59:22Z</time>
      </trkpt>
      <trkpt lat="43.18804" lon="6.6455">
        <ele>1.9</ele>
        <time>2014-05-04T09:59:41Z</time>
      </trkpt>
      <trkpt lat="43.18797" lon="6.64528">
        <ele>1.2</ele>
        <time>2014-05-04T09:59:58Z</time>
      </trkpt>
      <trkpt lat="43.18801" lon="6.64504">
        <ele>2.1</ele>
        <time>2014-05-04T10:00:16Z</time>
      </trkpt>
      <trkpt lat="43.18806" lon="6.6448">
        <ele>1.6</ele>
        <time>2014-05-04T10:00:32Z</time>
      </trkpt>
      <trkpt lat="43.18806" lon="6.64456">
        <ele>1.7</ele>
        <time>2014-05-04T10:00:47Z</time>
      </trkpt>
      <trkpt lat="43.18803" lon="6.64432">
        <ele>1.6</ele>
        <time>2014-05-04T10:01:02Z</time>
      </trkpt>
      <trkpt lat="43.18798" lon="6.64409">
        <ele>2.6</ele>
        <time>2014-05-04T10:01:16Z</time>
      </trkpt>
      <trkpt lat="43.18793" lon="6.64386">
        <ele>0.7</ele>
        <time>2014-05-04T10:01:31Z</time>
      </trkpt>
      <trkpt lat="43.18787" lon="6.64363">
        <ele>3</ele>
        <time>2014-05-04T10:01:47Z</time>
      </trkpt>
      <trkpt lat="43.18781" lon="6.6434">
        <ele>3.5</ele>
        <time>2014-05-04T10:02:02Z</time>
      </trkpt>
      <trkpt lat="43.18777" lon="6.64318">
        <ele>4.4</ele>
        <time>2014-05-04T10:02:15Z</time>
      </trkpt>
      <trkpt lat="43.18768" lon="6.64298">
        <ele>2.4</ele>
        <time>2014-05-04T10:02:29Z</time>
      </trkpt>
      <trkpt lat="43.18756" lon="6.64283">
        <ele>3.4</ele>
        <time>2014-05-04T10:02:43Z</time>
      </trkpt>
      <trkpt lat="43.18746" lon="6.64262">
        <ele>4.7</ele>
        <time>2014-05-04T10:02:58Z</time>
      </trkpt>
      <trkpt lat="43.18737" lon="6.64242">
        <ele>3.6</ele>
        <time>2014-05-04T10:03:11Z</time>
      </trkpt>
      <trkpt lat="43.18729" lon="6.64221">
        <ele>4.1</ele>
        <time>2014-05-04T10:03:26Z</time>
      </trkpt>
      <trkpt lat="43.18713" lon="6.64212">
        <ele>5.1</ele>
        <time>2014-05-04T10:04:09Z</time>
      </trkpt>
      <trkpt lat="43.18698" lon="6.64197">
        <ele>4</ele>
        <time>2014-05-04T10:04:34Z</time>
      </trkpt>
      <trkpt lat="43.18681" lon="6.64193">
        <ele>3.7</ele>
        <time>2014-05-04T10:05:40Z</time>
      </trkpt>
      <trkpt lat="43.18663" lon="6.64192">
        <ele>5.6</ele>
        <time>2014-05-04T10:06:02Z</time>
      </trkpt>
      <trkpt lat="43.18645" lon="6.64191">
        <ele>6.9</ele>
        <time>2014-05-04T10:06:19Z</time>
      </trkpt>
      <trkpt lat="43.18629" lon="6.6418">
        <ele>8</ele>
        <time>2014-05-04T10:06:36Z</time>
      </trkpt>
      <trkpt lat="43.18619" lon="6.64162">
        <ele>8.1</ele>
        <time>2014-05-04T10:06:56Z</time>
      </trkpt>
      <trkpt lat="43.18605" lon="6.6415">
        <ele>8.6</ele>
        <time>2014-05-04T10:07:15Z</time>
      </trkpt>
      <trkpt lat="43.18591" lon="6.64138">
        <ele>9.8</ele>
        <time>2014-05-04T10:07:36Z</time>
      </trkpt>
      <trkpt lat="43.18573" lon="6.6414">
        <ele>11.1</ele>
        <time>2014-05-04T10:08:24Z</time>
      </trkpt>
      <trkpt lat="43.18558" lon="6.64154">
        <ele>10.9</ele>
        <time>2014-05-04T10:08:45Z</time>
      </trkpt>
      <trkpt lat="43.18549" lon="6.64172">
        <ele>12.3</ele>
        <time>2014-05-04T10:09:01Z</time>
      </trkpt>
      <trkpt lat="43.18535" lon="6.64185">
        <ele>12.4</ele>
        <time>2014-05-04T10:09:14Z</time>
      </trkpt>
      <trkpt lat="43.18526" lon="6.64206">
        <ele>9.4</ele>
        <time>2014-05-04T10:09:50Z</time>
      </trkpt>
      <trkpt lat="43.18515" lon="6.64223">
        <ele>7.9</ele>
        <time>2014-05-04T10:10:18Z</time>
      </trkpt>
      <trkpt lat="43.18509" lon="6.64245">
        <ele>6.9</ele>
        <time>2014-05-04T10:10:41Z</time>
      </trkpt>
      <trkpt lat="43.18492" lon="6.64249">
        <ele>7</ele>
        <time>2014-05-04T10:11:04Z</time>
      </trkpt>
      <trkpt lat="43.18475" lon="6.64251">
        <ele>6.7</ele>
        <time>2014-05-04T10:11:30Z</time>
      </trkpt>
      <trkpt lat="43.18458" lon="6.64248">
        <ele>6.5</ele>
        <time>2014-05-04T10:11:59Z</time>
      </trkpt>
      <trkpt lat="43.18441" lon="6.64241">
        <ele>8.4</ele>
        <time>2014-05-04T10:12:22Z</time>
      </trkpt>
      <trkpt lat="43.18424" lon="6.64249">
        <ele>8.4</ele>
        <time>2014-05-04T10:12:55Z</time>
      </trkpt>
      <trkpt lat="43.18409" lon="6.64263">
        <ele>9.7</ele>
        <time>2014-05-04T10:13:20Z</time>
      </trkpt>
      <trkpt lat="43.18393" lon="6.64273">
        <ele>10.2</ele>
        <time>2014-05-04T10:13:44Z</time>
      </trkpt>
      <trkpt lat="43.18376" lon="6.64279">
        <ele>8.2</ele>
        <time>2014-05-04T10:14:22Z</time>
      </trkpt>
      <trkpt lat="43.18358" lon="6.64274">
        <ele>10.9</ele>
        <time>2014-05-04T10:14:58Z</time>
      </trkpt>
      <trkpt lat="43.18341" lon="6.64274">
        <ele>12.5</ele>
        <time>2014-05-04T10:15:31Z</time>
      </trkpt>
      <trkpt lat="43.18329" lon="6.64292">
        <ele>10.7</ele>
        <time>2014-05-04T10:15:55Z</time>
      </trkpt>
      <trkpt lat="43.18312" lon="6.64286">
        <ele>10.5</ele>
        <time>2014-05-04T10:16:18Z</time>
      </trkpt>
      <trkpt lat="43.18297" lon="6.64272">
        <ele>7.8</ele>
        <time>2014-05-04T10:16:47Z</time>
      </trkpt>
      <trkpt lat="43.18287" lon="6.64252">
        <ele>8.1</ele>
        <time>2014-05-04T10:17:08Z</time>
      </trkpt>
      <trkpt lat="43.1827" lon="6.64248">
        <ele>5.1</ele>
        <time>2014-05-04T10:17:46Z</time>
      </trkpt>
      <trkpt lat="43.18256" lon="6.64233">
        <ele>3.5</ele>
        <time>2014-05-04T10:18:11Z</time>
      </trkpt>
      <trkpt lat="43.18243" lon="6.64217">
        <ele>2.5</ele>
        <time>2014-05-04T10:18:41Z</time>
      </trkpt>
      <trkpt lat="43.18236" lon="6.64195">
        <ele>6.2</ele>
        <time>2014-05-04T10:19:05Z</time>
      </trkpt>
      <trkpt lat="43.18228" lon="6.64173">
        <ele>5.9</ele>
        <time>2014-05-04T10:19:30Z</time>
      </trkpt>
      <trkpt lat="43.18228" lon="6.64149">
        <ele>7.7</ele>
        <time>2014-05-04T10:19:57Z</time>
      </trkpt>
      <trkpt lat="43.18219" lon="6.64129">
        <ele>3.9</ele>
        <time>2014-05-04T10:20:46Z</time>
      </trkpt>
      <trkpt lat="43.18212" lon="6.64107">
        <ele>2.3</ele>
        <time>2014-05-04T10:21:10Z</time>
      </trkpt>
      <trkpt lat="43.18209" lon="6.64083">
        <ele>3</ele>
        <time>2014-05-04T10:21:44Z</time>
      </trkpt>
      <trkpt lat="43.18202" lon="6.6406">
        <ele>0.9</ele>
        <time>2014-05-04T10:22:16Z</time>
      </trkpt>
      <trkpt lat="43.18186" lon="6.64048">
        <ele>1</ele>
        <time>2014-05-04T10:22:52Z</time>
      </trkpt>
      <trkpt lat="43.1817" lon="6.64039">
        <ele>0.7</ele>
        <time>2014-05-04T10:23:49Z</time>
      </trkpt>
      <trkpt lat="43.18153" lon="6.64033">
        <ele>3.6</ele>
        <time>2014-05-04T10:24:22Z</time>
      </trkpt>
      <trkpt lat="43.18139" lon="6.64046">
        <ele>4.2</ele>
        <time>2014-05-04T10:25:01Z</time>
      </trkpt>
      <trkpt lat="43.18123" lon="6.64037">
        <ele>4.1</ele>
        <time>2014-05-04T10:25:27Z</time>
      </trkpt>
      <trkpt lat="43.18118" lon="6.64014">
        <ele>4.4</ele>
        <time>2014-05-04T10:25:42Z</time>
      </trkpt>
      <trkpt lat="43.18117" lon="6.63989">
        <ele>8.6</ele>
        <time>2014-05-04T10:26:22Z</time>
      </trkpt>
      <trkpt lat="43.181" lon="6.63994">
        <ele>5.2</ele>
        <time>2014-05-04T10:27:05Z</time>
      </trkpt>
      <trkpt lat="43.18083" lon="6.64">
        <ele>7.5</ele>
        <time>2014-05-04T10:27:33Z</time>
      </trkpt>
      <trkpt lat="43.18066" lon="6.64004">
        <ele>4.8</ele>
        <time>2014-05-04T10:28:04Z</time>
      </trkpt>
      <trkpt lat="43.1805" lon="6.64014">
        <ele>5.2</ele>
        <time>2014-05-04T10:28:59Z</time>
      </trkpt>
      <trkpt lat="43.18033" lon="6.64016">
        <ele>5.4</ele>
        <time>2014-05-04T10:29:16Z</time>
      </trkpt>
      <trkpt lat="43.18025" lon="6.63994">
        <ele>5.1</ele>
        <time>2014-05-04T10:29:36Z</time>
      </trkpt>
      <trkpt lat="43.18016" lon="6.63973">
        <ele>3.2</ele>
        <time>2014-05-04T10:30:09Z</time>
      </trkpt>
      <trkpt lat="43.18003" lon="6.63989">
        <ele>3.8</ele>
        <time>2014-05-04T10:30:48Z</time>
      </trkpt>
      <trkpt lat="43.17993" lon="6.64008">
        <ele>4.7</ele>
        <time>2014-05-04T10:31:31Z</time>
      </trkpt>
      <trkpt lat="43.1798" lon="6.64023">
        <ele>4.2</ele>
        <time>2014-05-04T10:31:44Z</time>
      </trkpt>
      <trkpt lat="43.17968" lon="6.64041">
        <ele>5.2</ele>
        <time>2014-05-04T10:32:08Z</time>
      </trkpt>
      <trkpt lat="43.17957" lon="6.64059">
        <ele>4.6</ele>
        <time>2014-05-04T10:32:40Z</time>
      </trkpt>
      <trkpt lat="43.17941" lon="6.64069">
        <ele>5.2</ele>
        <time>2014-05-04T10:33:01Z</time>
      </trkpt>
      <trkpt lat="43.17925" lon="6.64077">
        <ele>5</ele>
        <time>2014-05-04T10:33:23Z</time>
      </trkpt>
      <trkpt lat="43.17912" lon="6.64094">
        <ele>2.7</ele>
        <time>2014-05-04T10:34:02Z</time>
      </trkpt>
      <trkpt lat="43.17912" lon="6.64103">
        <ele>1.3</ele>
        <time>2014-05-04T10:39:05Z</time>
      </trkpt>
      <trkpt lat="43.17912" lon="6.64103">
        <ele>1.3</ele>
        <time>2014-05-04T10:39:05Z</time>
      </trkpt>
      <trkpt lat="43.17906" lon="6.6408">
        <ele>5.4</ele>
        <time>2014-05-04T11:42:57Z</time>
      </trkpt>
      <trkpt lat="43.17892" lon="6.64065">
        <ele>5.2</ele>
        <time>2014-05-04T11:45:30Z</time>
      </trkpt>
      <trkpt lat="43.17882" lon="6.64045">
        <ele>4.9</ele>
        <time>2014-05-04T11:46:14Z</time>
      </trkpt>
      <trkpt lat="43.17882" lon="6.64021">
        <ele>8.2</ele>
        <time>2014-05-04T11:46:39Z</time>
      </trkpt>
      <trkpt lat="43.17865" lon="6.64014">
        <ele>7.3</ele>
        <time>2014-05-04T11:47:34Z</time>
      </trkpt>
      <trkpt lat="43.17857" lon="6.64036">
        <ele>6.2</ele>
        <time>2014-05-04T11:47:56Z</time>
      </trkpt>
      <trkpt lat="43.17842" lon="6.6405">
        <ele>6</ele>
        <time>2014-05-04T11:48:25Z</time>
      </trkpt>
      <trkpt lat="43.17825" lon="6.64047">
        <ele>4.9</ele>
        <time>2014-05-04T11:48:41Z</time>
      </trkpt>
      <trkpt lat="43.17813" lon="6.6403">
        <ele>6</ele>
        <time>2014-05-04T11:49:05Z</time>
      </trkpt>
      <trkpt lat="43.178" lon="6.64046">
        <ele>7.6</ele>
        <time>2014-05-04T11:50:10Z</time>
      </trkpt>
      <trkpt lat="43.17783" lon="6.6405">
        <ele>7.8</ele>
        <time>2014-05-04T11:51:47Z</time>
      </trkpt>
      <trkpt lat="43.17765" lon="6.64055">
        <ele>10</ele>
        <time>2014-05-04T11:52:24Z</time>
      </trkpt>
      <trkpt lat="43.17748" lon="6.64058">
        <ele>12.2</ele>
        <time>2014-05-04T11:52:59Z</time>
      </trkpt>
      <trkpt lat="43.17731" lon="6.64063">
        <ele>11.9</ele>
        <time>2014-05-04T11:53:18Z</time>
      </trkpt>
      <trkpt lat="43.17713" lon="6.6406">
        <ele>12.3</ele>
        <time>2014-05-04T11:53:50Z</time>
      </trkpt>
      <trkpt lat="43.17696" lon="6.64056">
        <ele>11.6</ele>
        <time>2014-05-04T11:54:16Z</time>
      </trkpt>
      <trkpt lat="43.17678" lon="6.64054">
        <ele>12.1</ele>
        <time>2014-05-04T11:54:48Z</time>
      </trkpt>
      <trkpt lat="43.17662" lon="6.64063">
        <ele>9.6</ele>
        <time>2014-05-04T11:55:19Z</time>
      </trkpt>
      <trkpt lat="43.17645" lon="6.64069">
        <ele>9.9</ele>
        <time>2014-05-04T11:55:59Z</time>
      </trkpt>
      <trkpt lat="43.17629" lon="6.64077">
        <ele>8.8</ele>
        <time>2014-05-04T11:56:25Z</time>
      </trkpt>
      <trkpt lat="43.17613" lon="6.64088">
        <ele>7.2</ele>
        <time>2014-05-04T11:57:08Z</time>
      </trkpt>
      <trkpt lat="43.17596" lon="6.6408">
        <ele>9.2</ele>
        <time>2014-05-04T11:58:07Z</time>
      </trkpt>
      <trkpt lat="43.17579" lon="6.6408">
        <ele>7.2</ele>
        <time>2014-05-04T11:58:49Z</time>
      </trkpt>
      <trkpt lat="43.17561" lon="6.64082">
        <ele>6.8</ele>
        <time>2014-05-04T11:59:09Z</time>
      </trkpt>
      <trkpt lat="43.17555" lon="6.6406">
        <ele>6.7</ele>
        <time>2014-05-04T11:59:50Z</time>
      </trkpt>
      <trkpt lat="43.17553" lon="6.64036">
        <ele>6.9</ele>
        <time>2014-05-04T12:01:32Z</time>
      </trkpt>
      <trkpt lat="43.17548" lon="6.64013">
        <ele>6.6</ele>
        <time>2014-05-04T12:01:47Z</time>
      </trkpt>
      <trkpt lat="43.17552" lon="6.6399">
        <ele>7.4</ele>
        <time>2014-05-04T12:05:04Z</time>
      </trkpt>
      <trkpt lat="43.1756" lon="6.63968">
        <ele>8.8</ele>
        <time>2014-05-04T12:05:25Z</time>
      </trkpt>
      <trkpt lat="43.17571" lon="6.63949">
        <ele>12.3</ele>
        <time>2014-05-04T12:05:48Z</time>
      </trkpt>
      <trkpt lat="43.17582" lon="6.6393">
        <ele>15.5</ele>
        <time>2014-05-04T12:06:13Z</time>
      </trkpt>
      <trkpt lat="43.17594" lon="6.63912">
        <ele>18</ele>
        <time>2014-05-04T12:06:35Z</time>
      </trkpt>
      <trkpt lat="43.17607" lon="6.63927">
        <ele>21.5</ele>
        <time>2014-05-04T12:08:14Z</time>
      </trkpt>
      <trkpt lat="43.17607" lon="6.63951">
        <ele>21.5</ele>
        <time>2014-05-04T12:08:35Z</time>
      </trkpt>
      <trkpt lat="43.17616" lon="6.63971">
        <ele>24.4</ele>
        <time>2014-05-04T12:08:56Z</time>
      </trkpt>
      <trkpt lat="43.17619" lon="6.63995">
        <ele>27</ele>
        <time>2014-05-04T12:09:20Z</time>
      </trkpt>
      <trkpt lat="43.17631" lon="6.64013">
        <ele>31</ele>
        <time>2014-05-04T12:09:52Z</time>
      </trkpt>
      <trkpt lat="43.17649" lon="6.64015">
        <ele>29.2</ele>
        <time>2014-05-04T12:10:15Z</time>
      </trkpt>
      <trkpt lat="43.17666" lon="6.64012">
        <ele>27</ele>
        <time>2014-05-04T12:11:11Z</time>
      </trkpt>
      <trkpt lat="43.17682" lon="6.64016">
        <ele>26.4</ele>
        <time>2014-05-04T12:11:27Z</time>
      </trkpt>
      <trkpt lat="43.17699" lon="6.64019">
        <ele>26</ele>
        <time>2014-05-04T12:11:45Z</time>
      </trkpt>
      <trkpt lat="43.17717" lon="6.64021">
        <ele>27.1</ele>
        <time>2014-05-04T12:12:07Z</time>
      </trkpt>
      <trkpt lat="43.17735" lon="6.64018">
        <ele>27.5</ele>
        <time>2014-05-04T12:12:26Z</time>
      </trkpt>
      <trkpt lat="43.17747" lon="6.64014">
        <ele>27.7</ele>
        <time>2014-05-04T12:12:45Z</time>
      </trkpt>
      <trkpt lat="43.17754" lon="6.64">
        <ele>27.6</ele>
        <time>2014-05-04T12:12:47Z</time>
      </trkpt>
      <trkpt lat="43.17778" lon="6.63974">
        <ele>27</ele>
        <time>2014-05-04T12:12:52Z</time>
      </trkpt>
      <trkpt lat="43.17768" lon="6.63997">
        <ele>27.7</ele>
        <time>2014-05-04T12:12:54Z</time>
      </trkpt>
      <trkpt lat="43.17786" lon="6.64002">
        <ele>26.2</ele>
        <time>2014-05-04T12:13:36Z</time>
      </trkpt>
      <trkpt lat="43.17802" lon="6.63995">
        <ele>25.4</ele>
        <time>2014-05-04T12:13:50Z</time>
      </trkpt>
      <trkpt lat="43.17818" lon="6.63986">
        <ele>24.1</ele>
        <time>2014-05-04T12:14:06Z</time>
      </trkpt>
      <trkpt lat="43.17836" lon="6.63981">
        <ele>22.8</ele>
        <time>2014-05-04T12:14:21Z</time>
      </trkpt>
      <trkpt lat="43.17853" lon="6.63976">
        <ele>22.6</ele>
        <time>2014-05-04T12:14:35Z</time>
      </trkpt>
      <trkpt lat="43.1787" lon="6.63968">
        <ele>23.4</ele>
        <time>2014-05-04T12:14:51Z</time>
      </trkpt>
      <trkpt lat="43.17887" lon="6.6396">
        <ele>25.7</ele>
        <time>2014-05-04T12:15:11Z</time>
      </trkpt>
      <trkpt lat="43.17903" lon="6.63956">
        <ele>28</ele>
        <time>2014-05-04T12:15:28Z</time>
      </trkpt>
      <trkpt lat="43.17921" lon="6.63962">
        <ele>27.5</ele>
        <time>2014-05-04T12:15:43Z</time>
      </trkpt>
      <trkpt lat="43.17937" lon="6.6397">
        <ele>24.3</ele>
        <time>2014-05-04T12:16:20Z</time>
      </trkpt>
      <trkpt lat="43.17955" lon="6.63968">
        <ele>23.4</ele>
        <time>2014-05-04T12:16:37Z</time>
      </trkpt>
      <trkpt lat="43.17971" lon="6.63962">
        <ele>21</ele>
        <time>2014-05-04T12:16:53Z</time>
      </trkpt>
      <trkpt lat="43.17988" lon="6.63954">
        <ele>19.3</ele>
        <time>2014-05-04T12:17:10Z</time>
      </trkpt>
      <trkpt lat="43.18002" lon="6.63941">
        <ele>18.5</ele>
        <time>2014-05-04T12:17:30Z</time>
      </trkpt>
      <trkpt lat="43.18019" lon="6.63938">
        <ele>18.1</ele>
        <time>2014-05-04T12:17:55Z</time>
      </trkpt>
      <trkpt lat="43.18037" lon="6.63943">
        <ele>19.8</ele>
        <time>2014-05-04T12:18:15Z</time>
      </trkpt>
      <trkpt lat="43.18051" lon="6.63957">
        <ele>18.2</ele>
        <time>2014-05-04T12:18:37Z</time>
      </trkpt>
      <trkpt lat="43.18069" lon="6.63958">
        <ele>16</ele>
        <time>2014-05-04T12:18:56Z</time>
      </trkpt>
      <trkpt lat="43.18086" lon="6.63965">
        <ele>15.4</ele>
        <time>2014-05-04T12:19:12Z</time>
      </trkpt>
      <trkpt lat="43.18102" lon="6.63957">
        <ele>14.7</ele>
        <time>2014-05-04T12:19:27Z</time>
      </trkpt>
      <trkpt lat="43.1812" lon="6.63956">
        <ele>13.4</ele>
        <time>2014-05-04T12:19:48Z</time>
      </trkpt>
      <trkpt lat="43.18133" lon="6.63972">
        <ele>15.9</ele>
        <time>2014-05-04T12:20:14Z</time>
      </trkpt>
      <trkpt lat="43.1815" lon="6.63975">
        <ele>16.7</ele>
        <time>2014-05-04T12:20:32Z</time>
      </trkpt>
      <trkpt lat="43.18166" lon="6.63985">
        <ele>16.7</ele>
        <time>2014-05-04T12:20:48Z</time>
      </trkpt>
      <trkpt lat="43.18176" lon="6.64005">
        <ele>15.7</ele>
        <time>2014-05-04T12:21:04Z</time>
      </trkpt>
      <trkpt lat="43.18183" lon="6.64027">
        <ele>8.1</ele>
        <time>2014-05-04T12:21:32Z</time>
      </trkpt>
      <trkpt lat="43.18189" lon="6.6405">
        <ele>4</ele>
        <time>2014-05-04T12:22:09Z</time>
      </trkpt>
      <trkpt lat="43.18204" lon="6.64063">
        <ele>1.8</ele>
        <time>2014-05-04T12:22:29Z</time>
      </trkpt>
      <trkpt lat="43.1821" lon="6.64086">
        <ele>3</ele>
        <time>2014-05-04T12:23:32Z</time>
      </trkpt>
      <trkpt lat="43.18213" lon="6.64111">
        <ele>2.4</ele>
        <time>2014-05-04T12:23:54Z</time>
      </trkpt>
      <trkpt lat="43.18222" lon="6.64132">
        <ele>3.4</ele>
        <time>2014-05-04T12:24:33Z</time>
      </trkpt>
      <trkpt lat="43.18234" lon="6.64127">
        <ele>6</ele>
        <time>2014-05-04T12:26:40Z</time>
      </trkpt>
      <trkpt lat="43.18219" lon="6.6414">
        <ele>7.2</ele>
        <time>2014-05-04T12:28:50Z</time>
      </trkpt>
      <trkpt lat="43.18236" lon="6.64146">
        <ele>10.8</ele>
        <time>2014-05-04T12:29:38Z</time>
      </trkpt>
      <trkpt lat="43.18252" lon="6.6415">
        <ele>12.3</ele>
        <time>2014-05-04T12:29:56Z</time>
      </trkpt>
      <trkpt lat="43.18266" lon="6.64134">
        <ele>15.2</ele>
        <time>2014-05-04T12:30:30Z</time>
      </trkpt>
      <trkpt lat="43.18277" lon="6.64152">
        <ele>16.8</ele>
        <time>2014-05-04T12:31:08Z</time>
      </trkpt>
      <trkpt lat="43.18287" lon="6.64171">
        <ele>17.7</ele>
        <time>2014-05-04T12:31:25Z</time>
      </trkpt>
      <trkpt lat="43.18296" lon="6.64193">
        <ele>17.3</ele>
        <time>2014-05-04T12:31:42Z</time>
      </trkpt>
      <trkpt lat="43.18308" lon="6.64211">
        <ele>18.6</ele>
        <time>2014-05-04T12:31:59Z</time>
      </trkpt>
      <trkpt lat="43.18324" lon="6.64221">
        <ele>21.7</ele>
        <time>2014-05-04T12:32:19Z</time>
      </trkpt>
      <trkpt lat="43.18341" lon="6.64229">
        <ele>24.8</ele>
        <time>2014-05-04T12:32:40Z</time>
      </trkpt>
      <trkpt lat="43.18358" lon="6.64227">
        <ele>27.7</ele>
        <time>2014-05-04T12:32:57Z</time>
      </trkpt>
      <trkpt lat="43.18374" lon="6.64217">
        <ele>28.7</ele>
        <time>2014-05-04T12:33:14Z</time>
      </trkpt>
      <trkpt lat="43.18391" lon="6.64209">
        <ele>28.7</ele>
        <time>2014-05-04T12:33:29Z</time>
      </trkpt>
      <trkpt lat="43.18408" lon="6.64201">
        <ele>29</ele>
        <time>2014-05-04T12:33:43Z</time>
      </trkpt>
      <trkpt lat="43.18423" lon="6.64191">
        <ele>27.9</ele>
        <time>2014-05-04T12:33:59Z</time>
      </trkpt>
      <trkpt lat="43.1844" lon="6.64188">
        <ele>28.6</ele>
        <time>2014-05-04T12:34:12Z</time>
      </trkpt>
      <trkpt lat="43.18457" lon="6.64182">
        <ele>29.5</ele>
        <time>2014-05-04T12:34:24Z</time>
      </trkpt>
      <trkpt lat="43.18474" lon="6.64175">
        <ele>28.6</ele>
        <time>2014-05-04T12:34:40Z</time>
      </trkpt>
      <trkpt lat="43.18489" lon="6.64166">
        <ele>28.2</ele>
        <time>2014-05-04T12:34:54Z</time>
      </trkpt>
      <trkpt lat="43.18506" lon="6.64161">
        <ele>27.4</ele>
        <time>2014-05-04T12:35:05Z</time>
      </trkpt>
      <trkpt lat="43.18521" lon="6.64152">
        <ele>26.3</ele>
        <time>2014-05-04T12:35:18Z</time>
      </trkpt>
      <trkpt lat="43.18537" lon="6.64142">
        <ele>25.4</ele>
        <time>2014-05-04T12:35:32Z</time>
      </trkpt>
      <trkpt lat="43.18553" lon="6.64135">
        <ele>24.5</ele>
        <time>2014-05-04T12:35:44Z</time>
      </trkpt>
      <trkpt lat="43.18569" lon="6.64125">
        <ele>23.5</ele>
        <time>2014-05-04T12:35:58Z</time>
      </trkpt>
      <trkpt lat="43.18585" lon="6.64115">
        <ele>21.4</ele>
        <time>2014-05-04T12:36:14Z</time>
      </trkpt>
      <trkpt lat="43.18602" lon="6.64113">
        <ele>20.6</ele>
        <time>2014-05-04T12:36:28Z</time>
      </trkpt>
      <trkpt lat="43.18619" lon="6.64114">
        <ele>18.4</ele>
        <time>2014-05-04T12:36:41Z</time>
      </trkpt>
      <trkpt lat="43.18636" lon="6.64121">
        <ele>17.5</ele>
        <time>2014-05-04T12:36:55Z</time>
      </trkpt>
      <trkpt lat="43.18652" lon="6.6413">
        <ele>16.3</ele>
        <time>2014-05-04T12:37:11Z</time>
      </trkpt>
      <trkpt lat="43.18668" lon="6.64138">
        <ele>15.3</ele>
        <time>2014-05-04T12:37:27Z</time>
      </trkpt>
      <trkpt lat="43.18685" lon="6.64147">
        <ele>14.3</ele>
        <time>2014-05-04T12:37:44Z</time>
      </trkpt>
      <trkpt lat="43.187" lon="6.64155">
        <ele>13.3</ele>
        <time>2014-05-04T12:37:59Z</time>
      </trkpt>
      <trkpt lat="43.18717" lon="6.64165">
        <ele>12.9</ele>
        <time>2014-05-04T12:38:16Z</time>
      </trkpt>
      <trkpt lat="43.18719" lon="6.6419">
        <ele>9.9</ele>
        <time>2014-05-04T12:40:26Z</time>
      </trkpt>
      <trkpt lat="43.18722" lon="6.64213">
        <ele>8</ele>
        <time>2014-05-04T12:40:46Z</time>
      </trkpt>
      <trkpt lat="43.18733" lon="6.64233">
        <ele>7.5</ele>
        <time>2014-05-04T12:41:03Z</time>
      </trkpt>
      <trkpt lat="43.1874" lon="6.64254">
        <ele>7.2</ele>
        <time>2014-05-04T12:41:19Z</time>
      </trkpt>
      <trkpt lat="43.18748" lon="6.64274">
        <ele>6.7</ele>
        <time>2014-05-04T12:41:40Z</time>
      </trkpt>
      <trkpt lat="43.1876" lon="6.64291">
        <ele>6.7</ele>
        <time>2014-05-04T12:41:54Z</time>
      </trkpt>
      <trkpt lat="43.18772" lon="6.64309">
        <ele>6.1</ele>
        <time>2014-05-04T12:42:08Z</time>
      </trkpt>
      <trkpt lat="43.18779" lon="6.6433">
        <ele>6.2</ele>
        <time>2014-05-04T12:42:22Z</time>
      </trkpt>
      <trkpt lat="43.18783" lon="6.64353">
        <ele>6.1</ele>
        <time>2014-05-04T12:42:36Z</time>
      </trkpt>
      <trkpt lat="43.18788" lon="6.64375">
        <ele>5.1</ele>
        <time>2014-05-04T12:42:50Z</time>
      </trkpt>
      <trkpt lat="43.18795" lon="6.64397">
        <ele>3.7</ele>
        <time>2014-05-04T12:43:05Z</time>
      </trkpt>
      <trkpt lat="43.188" lon="6.6442">
        <ele>4</ele>
        <time>2014-05-04T12:43:20Z</time>
      </trkpt>
      <trkpt lat="43.18803" lon="6.64445">
        <ele>4</ele>
        <time>2014-05-04T12:43:36Z</time>
      </trkpt>
      <trkpt lat="43.18806" lon="6.64468">
        <ele>3.7</ele>
        <time>2014-05-04T12:43:52Z</time>
      </trkpt>
      <trkpt lat="43.18803" lon="6.64492">
        <ele>3.4</ele>
        <time>2014-05-04T12:44:07Z</time>
      </trkpt>
      <trkpt lat="43.18797" lon="6.64515">
        <ele>2.3</ele>
        <time>2014-05-04T12:44:24Z</time>
      </trkpt>
      <trkpt lat="43.188" lon="6.64539">
        <ele>2.4</ele>
        <time>2014-05-04T12:44:45Z</time>
      </trkpt>
      <trkpt lat="43.18807" lon="6.64561">
        <ele>3.5</ele>
        <time>2014-05-04T12:45:02Z</time>
      </trkpt>
      <trkpt lat="43.18802" lon="6.64584">
        <ele>3.8</ele>
        <time>2014-05-04T12:45:17Z</time>
      </trkpt>
      <trkpt lat="43.18799" lon="6.64607">
        <ele>2.9</ele>
        <time>2014-05-04T12:45:38Z</time>
      </trkpt>
      <trkpt lat="43.1879" lon="6.64628">
        <ele>5.5</ele>
        <time>2014-05-04T12:45:59Z</time>
      </trkpt>
      <trkpt lat="43.18794" lon="6.64651">
        <ele>5</ele>
        <time>2014-05-04T12:46:22Z</time>
      </trkpt>
      <trkpt lat="43.18794" lon="6.64675">
        <ele>5.1</ele>
        <time>2014-05-04T12:46:40Z</time>
      </trkpt>
      <trkpt lat="43.18795" lon="6.64699">
        <ele>5.4</ele>
        <time>2014-05-04T12:46:55Z</time>
      </trkpt>
      <trkpt lat="43.18802" lon="6.64722">
        <ele>6.7</ele>
        <time>2014-05-04T12:47:21Z</time>
      </trkpt>
      <trkpt lat="43.18806" lon="6.64746">
        <ele>5.1</ele>
        <time>2014-05-04T12:47:43Z</time>
      </trkpt>
      <trkpt lat="43.18812" lon="6.64768">
        <ele>6.5</ele>
        <time>2014-05-04T12:48:02Z</time>
      </trkpt>
      <trkpt lat="43.1882" lon="6.64789">
        <ele>7.1</ele>
        <time>2014-05-04T12:48:21Z</time>
      </trkpt>
      <trkpt lat="43.18835" lon="6.64802">
        <ele>9.1</ele>
        <time>2014-05-04T12:48:47Z</time>
      </trkpt>
      <trkpt lat="43.18849" lon="6.64815">
        <ele>6.3</ele>
        <time>2014-05-04T12:49:10Z</time>
      </trkpt>
      <trkpt lat="43.18866" lon="6.64824">
        <ele>7.4</ele>
        <time>2014-05-04T12:49:34Z</time>
      </trkpt>
      <trkpt lat="43.18878" lon="6.64842">
        <ele>6.3</ele>
        <time>2014-05-04T12:51:00Z</time>
      </trkpt>
      <trkpt lat="43.18874" lon="6.64866">
        <ele>4.6</ele>
        <time>2014-05-04T12:54:44Z</time>
      </trkpt>
      <trkpt lat="43.18881" lon="6.64888">
        <ele>3.3</ele>
        <time>2014-05-04T12:55:01Z</time>
      </trkpt>
      <trkpt lat="43.18886" lon="6.64911">
        <ele>3.1</ele>
        <time>2014-05-04T12:55:24Z</time>
      </trkpt>
      <trkpt lat="43.18888" lon="6.64936">
        <ele>3.2</ele>
        <time>2014-05-04T12:55:41Z</time>
      </trkpt>
      <trkpt lat="43.18902" lon="6.6495">
        <ele>3.7</ele>
        <time>2014-05-04T12:56:02Z</time>
      </trkpt>
      <trkpt lat="43.18911" lon="6.64971">
        <ele>2.6</ele>
        <time>2014-05-04T12:56:31Z</time>
      </trkpt>
      <trkpt lat="43.18924" lon="6.64957">
        <ele>3.4</ele>
        <time>2014-05-04T12:57:44Z</time>
      </trkpt>
      <trkpt lat="43.18941" lon="6.64957">
        <ele>4</ele>
        <time>2014-05-04T12:58:02Z</time>
      </trkpt>
      <trkpt lat="43.18959" lon="6.64955">
        <ele>3.7</ele>
        <time>2014-05-04T12:58:17Z</time>
      </trkpt>
      <trkpt lat="43.18976" lon="6.64961">
        <ele>4.9</ele>
        <time>2014-05-04T12:58:36Z</time>
      </trkpt>
      <trkpt lat="43.18993" lon="6.64963">
        <ele>6.6</ele>
        <time>2014-05-04T12:58:57Z</time>
      </trkpt>
      <trkpt lat="43.19011" lon="6.64966">
        <ele>6.8</ele>
        <time>2014-05-04T12:59:23Z</time>
      </trkpt>
      <trkpt lat="43.1902" lon="6.64987">
        <ele>6.3</ele>
        <time>2014-05-04T12:59:44Z</time>
      </trkpt>
      <trkpt lat="43.19028" lon="6.65008">
        <ele>6.9</ele>
        <time>2014-05-04T13:00:02Z</time>
      </trkpt>
      <trkpt lat="43.19044" lon="6.65019">
        <ele>5.9</ele>
        <time>2014-05-04T13:00:18Z</time>
      </trkpt>
      <trkpt lat="43.19055" lon="6.65038">
        <ele>6.7</ele>
        <time>2014-05-04T13:00:38Z</time>
      </trkpt>
      <trkpt lat="43.19062" lon="6.6506">
        <ele>4.8</ele>
        <time>2014-05-04T13:01:00Z</time>
      </trkpt>
      <trkpt lat="43.19067" lon="6.65083">
        <ele>5.2</ele>
        <time>2014-05-04T13:01:18Z</time>
      </trkpt>
      <trkpt lat="43.19081" lon="6.65098">
        <ele>5.7</ele>
        <time>2014-05-04T13:01:37Z</time>
      </trkpt>
      <trkpt lat="43.19099" lon="6.651">
        <ele>4.4</ele>
        <time>2014-05-04T13:02:03Z</time>
      </trkpt>
      <trkpt lat="43.19113" lon="6.65116">
        <ele>4</ele>
        <time>2014-05-04T13:02:36Z</time>
      </trkpt>
      <trkpt lat="43.19123" lon="6.65135">
        <ele>6</ele>
        <time>2014-05-04T13:03:01Z</time>
      </trkpt>
      <trkpt lat="43.19131" lon="6.65157">
        <ele>8.2</ele>
        <time>2014-05-04T13:03:24Z</time>
      </trkpt>
      <trkpt lat="43.1914" lon="6.65178">
        <ele>11</ele>
        <time>2014-05-04T13:03:51Z</time>
      </trkpt>
      <trkpt lat="43.19153" lon="6.65195">
        <ele>11.2</ele>
        <time>2014-05-04T13:04:15Z</time>
      </trkpt>
      <trkpt lat="43.19163" lon="6.65215">
        <ele>6.3</ele>
        <time>2014-05-04T13:04:55Z</time>
      </trkpt>
      <trkpt lat="43.19179" lon="6.65223">
        <ele>3.7</ele>
        <time>2014-05-04T13:05:18Z</time>
      </trkpt>
      <trkpt lat="43.19196" lon="6.65219">
        <ele>3.5</ele>
        <time>2014-05-04T13:05:38Z</time>
      </trkpt>
      <trkpt lat="43.19213" lon="6.65214">
        <ele>1.7</ele>
        <time>2014-05-04T13:06:03Z</time>
      </trkpt>
      <trkpt lat="43.19221" lon="6.65236">
        <ele>1.2</ele>
        <time>2014-05-04T13:06:26Z</time>
      </trkpt>
      <trkpt lat="43.19237" lon="6.65247">
        <ele>4</ele>
        <time>2014-05-04T13:06:45Z</time>
      </trkpt>
      <trkpt lat="43.19247" lon="6.65267">
        <ele>2.8</ele>
        <time>2014-05-04T13:07:01Z</time>
      </trkpt>
      <trkpt lat="43.19261" lon="6.65281">
        <ele>3.5</ele>
        <time>2014-05-04T13:07:19Z</time>
      </trkpt>
      <trkpt lat="43.19272" lon="6.653">
        <ele>4.5</ele>
        <time>2014-05-04T13:07:39Z</time>
      </trkpt>
      <trkpt lat="43.19279" lon="6.65321">
        <ele>4.6</ele>
        <time>2014-05-04T13:07:54Z</time>
      </trkpt>
      <trkpt lat="43.19292" lon="6.65337">
        <ele>4.3</ele>
        <time>2014-05-04T13:08:12Z</time>
      </trkpt>
      <trkpt lat="43.19307" lon="6.6535">
        <ele>5</ele>
        <time>2014-05-04T13:08:26Z</time>
      </trkpt>
      <trkpt lat="43.19316" lon="6.6537">
        <ele>4.4</ele>
        <time>2014-05-04T13:08:40Z</time>
      </trkpt>
      <trkpt lat="43.19326" lon="6.65391">
        <ele>4.8</ele>
        <time>2014-05-04T13:08:57Z</time>
      </trkpt>
      <trkpt lat="43.19336" lon="6.65411">
        <ele>5.1</ele>
        <time>2014-05-04T13:09:15Z</time>
      </trkpt>
      <trkpt lat="43.19338" lon="6.65435">
        <ele>2.7</ele>
        <time>2014-05-04T13:09:34Z</time>
      </trkpt>
      <trkpt lat="43.19355" lon="6.65441">
        <ele>4.6</ele>
        <time>2014-05-04T13:10:01Z</time>
      </trkpt>
      <trkpt lat="43.19354" lon="6.65465">
        <ele>5.4</ele>
        <time>2014-05-04T13:10:22Z</time>
      </trkpt>
      <trkpt lat="43.19367" lon="6.65482">
        <ele>3.3</ele>
        <time>2014-05-04T13:11:15Z</time>
      </trkpt>
      <trkpt lat="43.19378" lon="6.655">
        <ele>3.1</ele>
        <time>2014-05-04T13:13:00Z</time>
      </trkpt>
      <trkpt lat="43.19395" lon="6.65511">
        <ele>3.5</ele>
        <time>2014-05-04T13:13:18Z</time>
      </trkpt>
      <trkpt lat="43.19411" lon="6.65519">
        <ele>3.4</ele>
        <time>2014-05-04T13:13:33Z</time>
      </trkpt>
      <trkpt lat="43.19424" lon="6.65534">
        <ele>4.4</ele>
        <time>2014-05-04T13:13:54Z</time>
      </trkpt>
      <trkpt lat="43.19432" lon="6.65555">
        <ele>5</ele>
        <time>2014-05-04T13:14:11Z</time>
      </trkpt>
      <trkpt lat="43.19447" lon="6.65567">
        <ele>6.2</ele>
        <time>2014-05-04T13:14:27Z</time>
      </trkpt>
      <trkpt lat="43.19459" lon="6.65585">
        <ele>5.3</ele>
        <time>2014-05-04T13:14:45Z</time>
      </trkpt>
      <trkpt lat="43.19467" lon="6.65607">
        <ele>8.4</ele>
        <time>2014-05-04T13:15:08Z</time>
      </trkpt>
      <trkpt lat="43.19472" lon="6.6563">
        <ele>9.9</ele>
        <time>2014-05-04T13:15:30Z</time>
      </trkpt>
      <trkpt lat="43.19484" lon="6.65648">
        <ele>14.4</ele>
        <time>2014-05-04T13:16:01Z</time>
      </trkpt>
      <trkpt lat="43.19501" lon="6.65647">
        <ele>21.9</ele>
        <time>2014-05-04T13:16:39Z</time>
      </trkpt>
      <trkpt lat="43.19516" lon="6.65659">
        <ele>25.2</ele>
        <time>2014-05-04T13:17:08Z</time>
      </trkpt>
      <trkpt lat="43.1953" lon="6.65673">
        <ele>27</ele>
        <time>2014-05-04T13:17:29Z</time>
      </trkpt>
      <trkpt lat="43.19545" lon="6.65685">
        <ele>27.9</ele>
        <time>2014-05-04T13:17:48Z</time>
      </trkpt>
      <trkpt lat="43.19557" lon="6.65702">
        <ele>27.7</ele>
        <time>2014-05-04T13:18:07Z</time>
      </trkpt>
      <trkpt lat="43.19563" lon="6.65725">
        <ele>24.7</ele>
        <time>2014-05-04T13:18:28Z</time>
      </trkpt>
      <trkpt lat="43.19565" lon="6.65749">
        <ele>20.6</ele>
        <time>2014-05-04T13:18:53Z</time>
      </trkpt>
      <trkpt lat="43.19564" lon="6.65772">
        <ele>16.3</ele>
        <time>2014-05-04T13:19:19Z</time>
      </trkpt>
      <trkpt lat="43.19571" lon="6.65795">
        <ele>13.6</ele>
        <time>2014-05-04T13:19:43Z</time>
      </trkpt>
      <trkpt lat="43.19573" lon="6.65819">
        <ele>8.3</ele>
        <time>2014-05-04T13:20:18Z</time>
      </trkpt>
      <trkpt lat="43.19574" lon="6.65843">
        <ele>6.8</ele>
        <time>2014-05-04T13:20:59Z</time>
      </trkpt>
      <trkpt lat="43.19591" lon="6.65845">
        <ele>11.3</ele>
        <time>2014-05-04T13:21:28Z</time>
      </trkpt>
      <trkpt lat="43.19609" lon="6.65848">
        <ele>16.9</ele>
        <time>2014-05-04T13:22:04Z</time>
      </trkpt>
      <trkpt lat="43.19621" lon="6.65865">
        <ele>19.5</ele>
        <time>2014-05-04T13:22:26Z</time>
      </trkpt>
      <trkpt lat="43.19634" lon="6.65882">
        <ele>19.8</ele>
        <time>2014-05-04T13:22:47Z</time>
      </trkpt>
      <trkpt lat="43.19646" lon="6.65899">
        <ele>22.7</ele>
        <time>2014-05-04T13:23:08Z</time>
      </trkpt>
      <trkpt lat="43.19661" lon="6.65911">
        <ele>24.5</ele>
        <time>2014-05-04T13:23:31Z</time>
      </trkpt>
      <trkpt lat="43.19672" lon="6.6593">
        <ele>26.1</ele>
        <time>2014-05-04T13:23:53Z</time>
      </trkpt>
      <trkpt lat="43.19686" lon="6.65942">
        <ele>30.8</ele>
        <time>2014-05-04T13:24:19Z</time>
      </trkpt>
      <trkpt lat="43.197" lon="6.65958">
        <ele>31</ele>
        <time>2014-05-04T13:24:44Z</time>
      </trkpt>
      <trkpt lat="43.19696" lon="6.65982">
        <ele>32.7</ele>
        <time>2014-05-04T13:32:45Z</time>
      </trkpt>
      <trkpt lat="43.19696" lon="6.66006">
        <ele>32.5</ele>
        <time>2014-05-04T13:33:02Z</time>
      </trkpt>
      <trkpt lat="43.19697" lon="6.66031">
        <ele>32.1</ele>
        <time>2014-05-04T13:33:20Z</time>
      </trkpt>
      <trkpt lat="43.19696" lon="6.66055">
        <ele>30.5</ele>
        <time>2014-05-04T13:33:37Z</time>
      </trkpt>
      <trkpt lat="43.19687" lon="6.66076">
        <ele>29.7</ele>
        <time>2014-05-04T13:33:51Z</time>
      </trkpt>
      <trkpt lat="43.19677" lon="6.66094">
        <ele>28.9</ele>
        <time>2014-05-04T13:34:06Z</time>
      </trkpt>
      <trkpt lat="43.19666" lon="6.66113">
        <ele>28.3</ele>
        <time>2014-05-04T13:34:23Z</time>
      </trkpt>
      <trkpt lat="43.19659" lon="6.66135">
        <ele>27.6</ele>
        <time>2014-05-04T13:34:40Z</time>
      </trkpt>
      <trkpt lat="43.19652" lon="6.66157">
        <ele>28</ele>
        <time>2014-05-04T13:34:55Z</time>
      </trkpt>
      <trkpt lat="43.19637" lon="6.6617">
        <ele>23.5</ele>
        <time>2014-05-04T13:35:28Z</time>
      </trkpt>
      <trkpt lat="43.1962" lon="6.66167">
        <ele>16.6</ele>
        <time>2014-05-04T13:36:05Z</time>
      </trkpt>
      <trkpt lat="43.19603" lon="6.66165">
        <ele>10.3</ele>
        <time>2014-05-04T13:36:29Z</time>
      </trkpt>
      <trkpt lat="43.19589" lon="6.6618">
        <ele>8.1</ele>
        <time>2014-05-04T13:38:17Z</time>
      </trkpt>
      <trkpt lat="43.1958" lon="6.662">
        <ele>13.7</ele>
        <time>2014-05-04T13:38:55Z</time>
      </trkpt>
      <trkpt lat="43.19573" lon="6.66223">
        <ele>16.7</ele>
        <time>2014-05-04T13:39:26Z</time>
      </trkpt>
      <trkpt lat="43.19564" lon="6.66244">
        <ele>18.8</ele>
        <time>2014-05-04T13:39:49Z</time>
      </trkpt>
      <trkpt lat="43.19572" lon="6.66263">
        <ele>19.1</ele>
        <time>2014-05-04T13:40:03Z</time>
      </trkpt>
      <trkpt lat="43.19558" lon="6.66278">
        <ele>21</ele>
        <time>2014-05-04T13:40:32Z</time>
      </trkpt>
      <trkpt lat="43.1956" lon="6.66302">
        <ele>20.7</ele>
        <time>2014-05-04T13:40:42Z</time>
      </trkpt>
      <trkpt lat="43.19552" lon="6.66324">
        <ele>19.5</ele>
        <time>2014-05-04T13:41:02Z</time>
      </trkpt>
      <trkpt lat="43.19537" lon="6.66335">
        <ele>16.8</ele>
        <time>2014-05-04T13:41:23Z</time>
      </trkpt>
      <trkpt lat="43.19525" lon="6.66351">
        <ele>16</ele>
        <time>2014-05-04T13:41:40Z</time>
      </trkpt>
      <trkpt lat="43.19512" lon="6.66366">
        <ele>16.1</ele>
        <time>2014-05-04T13:42:11Z</time>
      </trkpt>
      <trkpt lat="43.19503" lon="6.66387">
        <ele>14</ele>
        <time>2014-05-04T13:42:57Z</time>
      </trkpt>
      <trkpt lat="43.19496" lon="6.66409">
        <ele>2.3</ele>
        <time>2014-05-04T13:44:01Z</time>
      </trkpt>
      <trkpt lat="43.19509" lon="6.66425">
        <ele>1.9</ele>
        <time>2014-05-04T13:44:34Z</time>
      </trkpt>
      <trkpt lat="43.19514" lon="6.66449">
        <ele>2.9</ele>
        <time>2014-05-04T13:45:05Z</time>
      </trkpt>
      <trkpt lat="43.19531" lon="6.66456">
        <ele>1.7</ele>
        <time>2014-05-04T13:45:32Z</time>
      </trkpt>
      <trkpt lat="43.19548" lon="6.6646">
        <ele>4.8</ele>
        <time>2014-05-04T13:46:06Z</time>
      </trkpt>
      <trkpt lat="43.19543" lon="6.66483">
        <ele>14.2</ele>
        <time>2014-05-04T13:47:41Z</time>
      </trkpt>
      <trkpt lat="43.19533" lon="6.66503">
        <ele>16</ele>
        <time>2014-05-04T13:48:07Z</time>
      </trkpt>
      <trkpt lat="43.19519" lon="6.66516">
        <ele>14.3</ele>
        <time>2014-05-04T13:49:21Z</time>
      </trkpt>
      <trkpt lat="43.19528" lon="6.66537">
        <ele>14</ele>
        <time>2014-05-04T13:50:20Z</time>
      </trkpt>
      <trkpt lat="43.19526" lon="6.6656">
        <ele>9.2</ele>
        <time>2014-05-04T13:50:52Z</time>
      </trkpt>
      <trkpt lat="43.19541" lon="6.66572">
        <ele>12.9</ele>
        <time>2014-05-04T13:51:17Z</time>
      </trkpt>
      <trkpt lat="43.19539" lon="6.66595">
        <ele>17.7</ele>
        <time>2014-05-04T13:51:52Z</time>
      </trkpt>
      <trkpt lat="43.1955" lon="6.66615">
        <ele>19.9</ele>
        <time>2014-05-04T13:52:32Z</time>
      </trkpt>
      <trkpt lat="43.19556" lon="6.66638">
        <ele>18.8</ele>
        <time>2014-05-04T13:53:07Z</time>
      </trkpt>
      <trkpt lat="43.19558" lon="6.66661">
        <ele>20.4</ele>
        <time>2014-05-04T13:53:35Z</time>
      </trkpt>
      <trkpt lat="43.19566" lon="6.66683">
        <ele>15.1</ele>
        <time>2014-05-04T13:54:17Z</time>
      </trkpt>
      <trkpt lat="43.19582" lon="6.66693">
        <ele>17.1</ele>
        <time>2014-05-04T13:54:49Z</time>
      </trkpt>
      <trkpt lat="43.19587" lon="6.66717">
        <ele>17.6</ele>
        <time>2014-05-04T13:55:11Z</time>
      </trkpt>
      <trkpt lat="43.19592" lon="6.6674">
        <ele>19.5</ele>
        <time>2014-05-04T13:55:34Z</time>
      </trkpt>
      <trkpt lat="43.19601" lon="6.66761">
        <ele>18</ele>
        <time>2014-05-04T13:55:56Z</time>
      </trkpt>
      <trkpt lat="43.19604" lon="6.66785">
        <ele>15.6</ele>
        <time>2014-05-04T13:56:23Z</time>
      </trkpt>
      <trkpt lat="43.1961" lon="6.66808">
        <ele>12.9</ele>
        <time>2014-05-04T13:57:03Z</time>
      </trkpt>
      <trkpt lat="43.19603" lon="6.6683">
        <ele>17.1</ele>
        <time>2014-05-04T13:57:41Z</time>
      </trkpt>
      <trkpt lat="43.1959" lon="6.66846">
        <ele>15.3</ele>
        <time>2014-05-04T13:58:05Z</time>
      </trkpt>
      <trkpt lat="43.19585" lon="6.66869">
        <ele>14.6</ele>
        <time>2014-05-04T13:58:25Z</time>
      </trkpt>
      <trkpt lat="43.19586" lon="6.66894">
        <ele>14.1</ele>
        <time>2014-05-04T13:58:44Z</time>
      </trkpt>
      <trkpt lat="43.19582" lon="6.66917">
        <ele>13.8</ele>
        <time>2014-05-04T13:58:58Z</time>
      </trkpt>
      <trkpt lat="43.19584" lon="6.66941">
        <ele>12.5</ele>
        <time>2014-05-04T13:59:14Z</time>
      </trkpt>
      <trkpt lat="43.19599" lon="6.66954">
        <ele>13.8</ele>
        <time>2014-05-04T13:59:35Z</time>
      </trkpt>
      <trkpt lat="43.19615" lon="6.66963">
        <ele>15</ele>
        <time>2014-05-04T14:00:01Z</time>
      </trkpt>
      <trkpt lat="43.19632" lon="6.66966">
        <ele>13.6</ele>
        <time>2014-05-04T14:00:19Z</time>
      </trkpt>
      <trkpt lat="43.19649" lon="6.66972">
        <ele>13.1</ele>
        <time>2014-05-04T14:00:39Z</time>
      </trkpt>
      <trkpt lat="43.19654" lon="6.66996">
        <ele>11.8</ele>
        <time>2014-05-04T14:00:58Z</time>
      </trkpt>
      <trkpt lat="43.1967" lon="6.67008">
        <ele>11.5</ele>
        <time>2014-05-04T14:01:23Z</time>
      </trkpt>
      <trkpt lat="43.19683" lon="6.67024">
        <ele>15.4</ele>
        <time>2014-05-04T14:01:49Z</time>
      </trkpt>
      <trkpt lat="43.19689" lon="6.67047">
        <ele>17.6</ele>
        <time>2014-05-04T14:02:10Z</time>
      </trkpt>
      <trkpt lat="43.19682" lon="6.67069">
        <ele>18.4</ele>
        <time>2014-05-04T14:02:29Z</time>
      </trkpt>
      <trkpt lat="43.19675" lon="6.6709">
        <ele>17.2</ele>
        <time>2014-05-04T14:02:45Z</time>
      </trkpt>
      <trkpt lat="43.19674" lon="6.67114">
        <ele>17.8</ele>
        <time>2014-05-04T14:03:05Z</time>
      </trkpt>
      <trkpt lat="43.19683" lon="6.67134">
        <ele>19.2</ele>
        <time>2014-05-04T14:04:46Z</time>
      </trkpt>
      <trkpt lat="43.19695" lon="6.67153">
        <ele>19.4</ele>
        <time>2014-05-04T14:05:03Z</time>
      </trkpt>
      <trkpt lat="43.1969" lon="6.67177">
        <ele>16.2</ele>
        <time>2014-05-04T14:06:33Z</time>
      </trkpt>
      <trkpt lat="43.1969" lon="6.67201">
        <ele>13.5</ele>
        <time>2014-05-04T14:07:00Z</time>
      </trkpt>
      <trkpt lat="43.19697" lon="6.67223">
        <ele>12.5</ele>
        <time>2014-05-04T14:07:25Z</time>
      </trkpt>
      <trkpt lat="43.19705" lon="6.67245">
        <ele>12.3</ele>
        <time>2014-05-04T14:07:57Z</time>
      </trkpt>
      <trkpt lat="43.19704" lon="6.67269">
        <ele>9.7</ele>
        <time>2014-05-04T14:08:28Z</time>
      </trkpt>
      <trkpt lat="43.19711" lon="6.67291">
        <ele>8.4</ele>
        <time>2014-05-04T14:09:08Z</time>
      </trkpt>
      <trkpt lat="43.19716" lon="6.67315">
        <ele>10</ele>
        <time>2014-05-04T14:09:32Z</time>
      </trkpt>
      <trkpt lat="43.19708" lon="6.67337">
        <ele>11.8</ele>
        <time>2014-05-04T14:09:57Z</time>
      </trkpt>
      <trkpt lat="43.19703" lon="6.6736">
        <ele>11.4</ele>
        <time>2014-05-04T14:10:16Z</time>
      </trkpt>
      <trkpt lat="43.197" lon="6.67384">
        <ele>11.8</ele>
        <time>2014-05-04T14:10:35Z</time>
      </trkpt>
      <trkpt lat="43.19694" lon="6.67406">
        <ele>9.9</ele>
        <time>2014-05-04T14:10:54Z</time>
      </trkpt>
      <trkpt lat="43.19691" lon="6.6743">
        <ele>9.1</ele>
        <time>2014-05-04T14:11:21Z</time>
      </trkpt>
      <trkpt lat="43.19677" lon="6.67443">
        <ele>13</ele>
        <time>2014-05-04T14:11:46Z</time>
      </trkpt>
      <trkpt lat="43.19662" lon="6.67456">
        <ele>14.2</ele>
        <time>2014-05-04T14:12:05Z</time>
      </trkpt>
      <trkpt lat="43.19648" lon="6.67471">
        <ele>16.3</ele>
        <time>2014-05-04T14:12:23Z</time>
      </trkpt>
      <trkpt lat="43.19631" lon="6.67478">
        <ele>15</ele>
        <time>2014-05-04T14:12:41Z</time>
      </trkpt>
      <trkpt lat="43.19621" lon="6.67499">
        <ele>16.6</ele>
        <time>2014-05-04T14:13:04Z</time>
      </trkpt>
      <trkpt lat="43.19622" lon="6.67523">
        <ele>18.1</ele>
        <time>2014-05-04T14:13:21Z</time>
      </trkpt>
      <trkpt lat="43.19611" lon="6.67542">
        <ele>18.5</ele>
        <time>2014-05-04T14:13:46Z</time>
      </trkpt>
      <trkpt lat="43.1961" lon="6.67567">
        <ele>21.4</ele>
        <time>2014-05-04T14:14:07Z</time>
      </trkpt>
      <trkpt lat="43.19626" lon="6.67574">
        <ele>23.4</ele>
        <time>2014-05-04T14:14:39Z</time>
      </trkpt>
      <trkpt lat="43.19643" lon="6.67584">
        <ele>24.7</ele>
        <time>2014-05-04T14:14:58Z</time>
      </trkpt>
      <trkpt lat="43.19652" lon="6.67604">
        <ele>26</ele>
        <time>2014-05-04T14:15:20Z</time>
      </trkpt>
      <trkpt lat="43.19661" lon="6.67625">
        <ele>29.1</ele>
        <time>2014-05-04T14:15:52Z</time>
      </trkpt>
      <trkpt lat="43.19675" lon="6.67639">
        <ele>27.3</ele>
        <time>2014-05-04T14:16:08Z</time>
      </trkpt>
      <trkpt lat="43.19687" lon="6.67655">
        <ele>25.6</ele>
        <time>2014-05-04T14:16:27Z</time>
      </trkpt>
      <trkpt lat="43.19698" lon="6.67675">
        <ele>21.6</ele>
        <time>2014-05-04T14:16:45Z</time>
      </trkpt>
      <trkpt lat="43.19711" lon="6.6769">
        <ele>20.9</ele>
        <time>2014-05-04T14:17:00Z</time>
      </trkpt>
      <trkpt lat="43.19728" lon="6.67696">
        <ele>14.6</ele>
        <time>2014-05-04T14:17:45Z</time>
      </trkpt>
      <trkpt lat="43.19745" lon="6.67701">
        <ele>13.3</ele>
        <time>2014-05-04T14:18:02Z</time>
      </trkpt>
      <trkpt lat="43.19762" lon="6.67701">
        <ele>10.3</ele>
        <time>2014-05-04T14:18:48Z</time>
      </trkpt>
      <trkpt lat="43.19779" lon="6.67691">
        <ele>8.2</ele>
        <time>2014-05-04T14:19:08Z</time>
      </trkpt>
      <trkpt lat="43.19795" lon="6.67692">
        <ele>6.5</ele>
        <time>2014-05-04T14:19:23Z</time>
      </trkpt>
      <trkpt lat="43.19811" lon="6.67702">
        <ele>6.8</ele>
        <time>2014-05-04T14:19:46Z</time>
      </trkpt>
      <trkpt lat="43.19824" lon="6.67719">
        <ele>7.5</ele>
        <time>2014-05-04T14:20:05Z</time>
      </trkpt>
      <trkpt lat="43.19836" lon="6.67737">
        <ele>6.4</ele>
        <time>2014-05-04T14:20:25Z</time>
      </trkpt>
      <trkpt lat="43.19842" lon="6.6776">
        <ele>8.1</ele>
        <time>2014-05-04T14:20:48Z</time>
      </trkpt>
      <trkpt lat="43.19856" lon="6.67775">
        <ele>12.1</ele>
        <time>2014-05-04T14:21:15Z</time>
      </trkpt>
      <trkpt lat="43.19862" lon="6.67798">
        <ele>9.2</ele>
        <time>2014-05-04T14:21:36Z</time>
      </trkpt>
      <trkpt lat="43.19874" lon="6.67816">
        <ele>10.4</ele>
        <time>2014-05-04T14:22:28Z</time>
      </trkpt>
      <trkpt lat="43.19889" lon="6.67829">
        <ele>15.1</ele>
        <time>2014-05-04T14:23:00Z</time>
      </trkpt>
      <trkpt lat="43.19904" lon="6.67841">
        <ele>22.1</ele>
        <time>2014-05-04T14:23:41Z</time>
      </trkpt>
      <trkpt lat="43.19917" lon="6.67857">
        <ele>21.9</ele>
        <time>2014-05-04T14:24:09Z</time>
      </trkpt>
      <trkpt lat="43.19924" lon="6.67879">
        <ele>17.6</ele>
        <time>2014-05-04T14:24:30Z</time>
      </trkpt>
      <trkpt lat="43.19932" lon="6.679">
        <ele>17.4</ele>
        <time>2014-05-04T14:24:48Z</time>
      </trkpt>
      <trkpt lat="43.19942" lon="6.6792">
        <ele>18</ele>
        <time>2014-05-04T14:25:06Z</time>
      </trkpt>
      <trkpt lat="43.19944" lon="6.67944">
        <ele>15.5</ele>
        <time>2014-05-04T14:25:24Z</time>
      </trkpt>
      <trkpt lat="43.19942" lon="6.67968">
        <ele>15.7</ele>
        <time>2014-05-04T14:25:40Z</time>
      </trkpt>
      <trkpt lat="43.19951" lon="6.67989">
        <ele>15.4</ele>
        <time>2014-05-04T14:25:58Z</time>
      </trkpt>
      <trkpt lat="43.19959" lon="6.6801">
        <ele>15.8</ele>
        <time>2014-05-04T14:26:16Z</time>
      </trkpt>
      <trkpt lat="43.19967" lon="6.68032">
        <ele>18.1</ele>
        <time>2014-05-04T14:26:36Z</time>
      </trkpt>
      <trkpt lat="43.19981" lon="6.68046">
        <ele>19.4</ele>
        <time>2014-05-04T14:26:59Z</time>
      </trkpt>
      <trkpt lat="43.19999" lon="6.68046">
        <ele>23.7</ele>
        <time>2014-05-04T14:27:34Z</time>
      </trkpt>
      <trkpt lat="43.20015" lon="6.68037">
        <ele>27.3</ele>
        <time>2014-05-04T14:28:00Z</time>
      </trkpt>
      <trkpt lat="43.20024" lon="6.68016">
        <ele>33</ele>
        <time>2014-05-04T14:28:36Z</time>
      </trkpt>
      <trkpt lat="43.20027" lon="6.67992">
        <ele>38.4</ele>
        <time>2014-05-04T14:29:12Z</time>
      </trkpt>
      <trkpt lat="43.20023" lon="6.67969">
        <ele>39.5</ele>
        <time>2014-05-04T14:29:32Z</time>
      </trkpt>
      <trkpt lat="43.20024" lon="6.67945">
        <ele>41.4</ele>
        <time>2014-05-04T14:29:50Z</time>
      </trkpt>
      <trkpt lat="43.20027" lon="6.67921">
        <ele>42.9</ele>
        <time>2014-05-04T14:30:12Z</time>
      </trkpt>
      <trkpt lat="43.2003" lon="6.67897">
        <ele>46.9</ele>
        <time>2014-05-04T14:30:42Z</time>
      </trkpt>
      <trkpt lat="43.2004" lon="6.67876">
        <ele>51.4</ele>
        <time>2014-05-04T14:31:13Z</time>
      </trkpt>
      <trkpt lat="43.20041" lon="6.67852">
        <ele>56.2</ele>
        <time>2014-05-04T14:31:44Z</time>
      </trkpt>
      <trkpt lat="43.20041" lon="6.67828">
        <ele>59.5</ele>
        <time>2014-05-04T14:32:09Z</time>
      </trkpt>
      <trkpt lat="43.20047" lon="6.67805">
        <ele>62.9</ele>
        <time>2014-05-04T14:32:38Z</time>
      </trkpt>
      <trkpt lat="43.20052" lon="6.67781">
        <ele>66.3</ele>
        <time>2014-05-04T14:33:03Z</time>
      </trkpt>
      <trkpt lat="43.20059" lon="6.67759">
        <ele>69.9</ele>
        <time>2014-05-04T14:33:27Z</time>
      </trkpt>
      <trkpt lat="43.2007" lon="6.6774">
        <ele>73.6</ele>
        <time>2014-05-04T14:33:54Z</time>
      </trkpt>
      <trkpt lat="43.20083" lon="6.67724">
        <ele>78.9</ele>
        <time>2014-05-04T14:34:25Z</time>
      </trkpt>
      <trkpt lat="43.20084" lon="6.677">
        <ele>81.9</ele>
        <time>2014-05-04T14:34:53Z</time>
      </trkpt>
      <trkpt lat="43.20093" lon="6.67679">
        <ele>84.3</ele>
        <time>2014-05-04T14:35:16Z</time>
      </trkpt>
      <trkpt lat="43.20098" lon="6.67656">
        <ele>86.7</ele>
        <time>2014-05-04T14:35:39Z</time>
      </trkpt>
      <trkpt lat="43.20103" lon="6.67633">
        <ele>89.1</ele>
        <time>2014-05-04T14:36:01Z</time>
      </trkpt>
      <trkpt lat="43.20116" lon="6.67615">
        <ele>91</ele>
        <time>2014-05-04T14:36:22Z</time>
      </trkpt>
      <trkpt lat="43.20126" lon="6.67597">
        <ele>93.6</ele>
        <time>2014-05-04T14:36:43Z</time>
      </trkpt>
      <trkpt lat="43.20138" lon="6.67579">
        <ele>95.6</ele>
        <time>2014-05-04T14:37:04Z</time>
      </trkpt>
      <trkpt lat="43.20139" lon="6.67555">
        <ele>98.2</ele>
        <time>2014-05-04T14:37:26Z</time>
      </trkpt>
      <trkpt lat="43.20142" lon="6.67531">
        <ele>100.9</ele>
        <time>2014-05-04T14:37:47Z</time>
      </trkpt>
      <trkpt lat="43.20147" lon="6.67508">
        <ele>101.4</ele>
        <time>2014-05-04T14:38:04Z</time>
      </trkpt>
      <trkpt lat="43.20137" lon="6.67488">
        <ele>103.3</ele>
        <time>2014-05-04T14:38:23Z</time>
      </trkpt>
      <trkpt lat="43.20133" lon="6.67465">
        <ele>104.8</ele>
        <time>2014-05-04T14:38:40Z</time>
      </trkpt>
      <trkpt lat="43.20131" lon="6.6744">
        <ele>106.2</ele>
        <time>2014-05-04T14:38:56Z</time>
      </trkpt>
      <trkpt lat="43.20133" lon="6.67416">
        <ele>109</ele>
        <time>2014-05-04T14:39:16Z</time>
      </trkpt>
      <trkpt lat="43.20128" lon="6.67394">
        <ele>110.1</ele>
        <time>2014-05-04T14:39:33Z</time>
      </trkpt>
      <trkpt lat="43.20111" lon="6.6739">
        <ele>111.6</ele>
        <time>2014-05-04T14:39:56Z</time>
      </trkpt>
      <trkpt lat="43.20113" lon="6.67402">
        <ele>111.4</ele>
        <time>2014-05-04T14:42:13Z</time>
      </trkpt>
      <trkpt lat="43.20113" lon="6.67402">
        <ele>111.4</ele>
        <time>2014-05-04T14:42:13Z</time>
      </trkpt>
      <trkpt lat="43.20128" lon="6.67394">
        <ele>110.1</ele>
        <time>2014-05-04T14:39:33Z</time>
      </trkpt>
      <trkpt lat="43.20111" lon="6.6739">
        <ele>111.6</ele>
        <time>2014-05-04T14:39:56Z</time>
      </trkpt>
      <trkpt lat="43.20113" lon="6.67402">
        <ele>111.3</ele>
        <time>2014-05-04T14:42:13Z</time>
      </trkpt>
      <trkpt lat="43.20113" lon="6.67402">
        <ele>111.3</ele>
        <time>2014-05-04T14:42:13Z</time>
      </trkpt>
      <trkpt lat="43.20113" lon="6.67403">
        <ele>110.9</ele>
        <time>2014-05-04T14:42:19Z</time>
      </trkpt>
    </trkseg>
  </trk>
</gpx>